Time,TemperatureF,DewpointF,PressureIn,WindDirection,WindDirectionDegrees,WindSpeedMPH,WindSpeedGustMPH,Humidity,HourlyPrecipIn,Conditions,Clouds,dailyrainin,SoftwareType,DateUTC
2013-10-08 00:00:00,49.8,48.4,30.10,SSW,204,0.0,1.0,95,0.00,,,1.33,Wunderground v.1.15,2013-10-08 04:00:00,
2013-10-08 00:01:00,49.8,48.1,30.10,SSW,204,0.0,1.0,94,0.00,,,0.00,Wunderground v.1.15,2013-10-08 04:01:00,
2013-10-08 00:03:00,49.8,48.4,30.10,SSW,204,0.0,1.0,95,0.00,,,0.00,Wunderground v.1.15,2013-10-08 04:03:00,
2013-10-08 00:04:00,49.7,48.3,30.10,SSW,204,0.0,1.0,95,0.00,,,0.00,Wunderground v.1.15,2013-10-08 04:04:00,
2013-10-08 00:06:00,49.7,48.3,30.10,SSW,204,0.0,1.0,95,0.00,,,0.00,Wunderground v.1.15,2013-10-08 04:06:00,
2013-10-08 00:07:00,49.7,48.3,30.10,SSW,204,0.0,1.0,95,0.00,,,0.00,Wunderground v.1.15,2013-10-08 04:07:00,
2013-10-08 00:09:00,49.6,48.2,30.10,SSW,204,0.0,1.0,95,0.00,,,0.00,Wunderground v.1.15,2013-10-08 04:09:00,
2013-10-08 00:10:00,49.6,48.2,30.11,SSW,204,0.0,0.0,95,0.00,,,0.00,Wunderground v.1.15,2013-10-08 04:10:00,
2013-10-08 00:11:00,49.5,48.1,30.11,SSW,204,0.0,0.0,95,0.00,,,0.00,Wunderground v.1.15,2013-10-08 04:11:00,
2013-10-08 00:13:00,49.5,48.1,30.11,SSW,204,0.0,1.0,95,0.00,,,0.00,Wunderground v.1.15,2013-10-08 04:13:00,
2013-10-08 00:16:00,49.3,47.9,30.11,South,174,1.0,2.0,95,0.00,,,0.00,Wunderground v.1.15,2013-10-08 04:16:00,
2013-10-08 00:17:00,49.3,48.2,30.11,South,174,1.0,2.0,96,0.00,,,0.00,Wunderground v.1.15,2013-10-08 04:17:00,
2013-10-08 00:18:00,49.2,48.1,30.11,South,174,1.0,2.0,96,0.00,,,0.00,Wunderground v.1.15,2013-10-08 04:18:00,
2013-10-08 00:20:00,49.2,48.1,30.11,South,174,1.0,1.0,96,0.00,,,0.00,Wunderground v.1.15,2013-10-08 04:20:00,
2013-10-08 00:21:00,49.2,48.1,30.11,South,174,1.0,1.0,96,0.00,,,0.00,Wunderground v.1.15,2013-10-08 04:21:00,
2013-10-08 00:22:00,49.1,48.0,30.11,South,174,1.0,1.0,96,0.00,,,0.00,Wunderground v.1.15,2013-10-08 04:22:00,
2013-10-08 00:23:00,49.1,48.0,30.10,South,174,1.0,1.0,96,0.00,,,0.00,Wunderground v.1.15,2013-10-08 04:23:00,
2013-10-08 00:25:00,49.2,48.1,30.11,South,174,1.0,1.0,96,0.00,,,0.00,Wunderground v.1.15,2013-10-08 04:25:00,
2013-10-08 00:27:00,49.2,48.1,30.11,South,174,0.0,1.0,96,0.00,,,0.00,Wunderground v.1.15,2013-10-08 04:27:00,
2013-10-08 00:28:00,49.2,48.4,30.11,South,174,0.0,1.0,97,0.00,,,0.00,Wunderground v.1.15,2013-10-08 04:28:00,
2013-10-08 00:29:00,49.2,48.1,30.11,South,174,0.0,1.0,96,0.00,,,0.00,Wunderground v.1.15,2013-10-08 04:29:00,
2013-10-08 00:32:00,49.1,48.0,30.11,South,174,0.0,2.0,96,0.00,,,0.00,Wunderground v.1.15,2013-10-08 04:32:00,
2013-10-08 00:34:00,49.1,48.0,30.11,South,174,0.0,2.0,96,0.00,,,0.00,Wunderground v.1.15,2013-10-08 04:34:00,
2013-10-08 00:35:00,49.0,47.9,30.11,South,174,0.0,2.0,96,0.00,,,0.00,Wunderground v.1.15,2013-10-08 04:35:00,
2013-10-08 00:37:00,49.0,47.9,30.11,South,175,0.0,3.0,96,0.00,,,0.00,Wunderground v.1.15,2013-10-08 04:37:00,
2013-10-08 00:39:00,49.1,48.3,30.11,South,175,0.0,3.0,97,0.00,,,0.00,Wunderground v.1.15,2013-10-08 04:39:00,
2013-10-08 00:40:00,49.1,48.3,30.11,South,175,0.0,2.0,97,0.00,,,0.00,Wunderground v.1.15,2013-10-08 04:40:00,
2013-10-08 00:41:00,49.1,48.3,30.11,South,175,0.0,2.0,97,0.00,,,0.00,Wunderground v.1.15,2013-10-08 04:41:00,
2013-10-08 00:42:00,49.1,48.0,30.11,South,175,0.0,2.0,96,0.00,,,0.00,Wunderground v.1.15,2013-10-08 04:42:00,
2013-10-08 00:44:00,48.8,47.7,30.11,South,176,1.0,3.0,96,0.00,,,0.00,Wunderground v.1.15,2013-10-08 04:44:00,
2013-10-08 00:45:00,48.7,47.3,30.11,South,176,1.0,3.0,95,0.00,,,0.00,Wunderground v.1.15,2013-10-08 04:45:00,
2013-10-08 00:49:00,48.5,47.4,30.11,South,176,0.0,3.0,96,0.00,,,0.00,Wunderground v.1.15,2013-10-08 04:49:00,
2013-10-08 00:50:00,48.5,47.4,30.11,South,176,0.0,2.0,96,0.00,,,0.00,Wunderground v.1.15,2013-10-08 04:50:00,
2013-10-08 00:53:00,48.5,47.4,30.11,South,176,0.0,2.0,96,0.00,,,0.00,Wunderground v.1.15,2013-10-08 04:53:00,
2013-10-08 00:55:00,48.5,47.7,30.11,South,176,0.0,2.0,97,0.00,,,0.00,Wunderground v.1.15,2013-10-08 04:55:00,
2013-10-08 00:56:00,48.6,47.8,30.11,South,176,0.0,2.0,97,0.00,,,0.00,Wunderground v.1.15,2013-10-08 04:56:00,
2013-10-08 00:58:00,48.5,47.7,30.11,South,176,0.0,2.0,97,0.00,,,0.00,Wunderground v.1.15,2013-10-08 04:58:00,
2013-10-08 00:59:00,48.5,47.4,30.11,South,176,0.0,2.0,96,0.00,,,0.00,Wunderground v.1.15,2013-10-08 04:59:00,
2013-10-08 01:01:00,48.5,47.7,30.10,South,176,0.0,2.0,97,0.00,,,0.00,Wunderground v.1.15,2013-10-08 05:01:00,
2013-10-08 01:03:00,48.6,47.8,30.10,South,176,0.0,2.0,97,0.00,,,0.00,Wunderground v.1.15,2013-10-08 05:03:00,
2013-10-08 01:04:00,48.6,47.8,30.10,South,176,0.0,2.0,97,0.00,,,0.00,Wunderground v.1.15,2013-10-08 05:04:00,
2013-10-08 01:07:00,48.7,47.9,30.10,South,176,1.0,2.0,97,0.00,,,0.00,Wunderground v.1.15,2013-10-08 05:07:00,
2013-10-08 01:09:00,48.7,47.9,30.10,South,176,1.0,2.0,97,0.00,,,0.00,Wunderground v.1.15,2013-10-08 05:09:00,
2013-10-08 01:10:00,48.6,47.5,30.10,South,176,1.0,1.0,96,0.00,,,0.00,Wunderground v.1.15,2013-10-08 05:10:00,
2013-10-08 01:11:00,48.5,47.4,30.10,South,176,1.0,2.0,96,0.00,,,0.00,Wunderground v.1.15,2013-10-08 05:11:00,
2013-10-08 01:12:00,48.5,47.4,30.10,South,176,1.0,2.0,96,0.00,,,0.00,Wunderground v.1.15,2013-10-08 05:12:00,
2013-10-08 01:13:00,48.4,47.3,30.10,South,176,1.0,2.0,96,0.00,,,0.00,Wunderground v.1.15,2013-10-08 05:13:00,
2013-10-08 01:15:00,48.3,47.2,30.10,South,176,0.0,2.0,96,0.00,,,0.00,Wunderground v.1.15,2013-10-08 05:15:00,
2013-10-08 01:16:00,48.2,47.1,30.10,South,176,0.0,2.0,96,0.00,,,0.00,Wunderground v.1.15,2013-10-08 05:16:00,
2013-10-08 01:17:00,48.2,47.1,30.10,South,176,0.0,2.0,96,0.00,,,0.00,Wunderground v.1.15,2013-10-08 05:17:00,
2013-10-08 01:22:00,48.2,47.4,30.10,South,176,1.0,2.0,97,0.00,,,0.00,Wunderground v.1.15,2013-10-08 05:22:00,
2013-10-08 01:24:00,48.1,47.3,30.11,South,176,1.0,2.0,97,0.00,,,0.00,Wunderground v.1.15,2013-10-08 05:24:00,
2013-10-08 01:28:00,47.9,46.8,30.11,South,176,0.0,2.0,96,0.00,,,0.00,Wunderground v.1.15,2013-10-08 05:28:00,
2013-10-08 01:29:00,47.9,46.8,30.11,South,176,0.0,2.0,96,0.00,,,0.00,Wunderground v.1.15,2013-10-08 05:29:00,
2013-10-08 01:31:00,47.8,47.0,30.11,South,176,0.0,2.0,97,0.00,,,0.00,Wunderground v.1.15,2013-10-08 05:31:00,
2013-10-08 01:32:00,47.7,46.9,30.11,South,176,0.0,2.0,97,0.00,,,0.00,Wunderground v.1.15,2013-10-08 05:32:00,
2013-10-08 01:36:00,47.6,46.8,30.11,South,176,0.0,2.0,97,0.00,,,0.00,Wunderground v.1.15,2013-10-08 05:36:00,
2013-10-08 01:37:00,47.6,46.8,30.11,South,176,0.0,2.0,97,0.00,,,0.00,Wunderground v.1.15,2013-10-08 05:37:00,
2013-10-08 01:38:00,47.7,46.9,30.10,South,176,0.0,2.0,97,0.00,,,0.00,Wunderground v.1.15,2013-10-08 05:38:00,
2013-10-08 01:39:00,47.7,46.9,30.10,South,176,0.0,2.0,97,0.00,,,0.00,Wunderground v.1.15,2013-10-08 05:39:00,
2013-10-08 01:42:00,47.8,47.0,30.10,South,176,0.0,2.0,97,0.00,,,0.00,Wunderground v.1.15,2013-10-08 05:42:00,
2013-10-08 01:43:00,47.9,47.4,30.11,South,176,0.0,2.0,98,0.00,,,0.00,Wunderground v.1.15,2013-10-08 05:43:00,
2013-10-08 01:44:00,47.9,47.4,30.11,South,176,0.0,2.0,98,0.00,,,0.00,Wunderground v.1.15,2013-10-08 05:44:00,
2013-10-08 01:46:00,47.7,46.9,30.11,South,176,0.0,2.0,97,0.00,,,0.00,Wunderground v.1.15,2013-10-08 05:46:00,
2013-10-08 01:47:00,47.6,46.8,30.11,South,176,0.0,2.0,97,0.00,,,0.00,Wunderground v.1.15,2013-10-08 05:47:00,
2013-10-08 01:49:00,47.5,46.7,30.11,South,176,0.0,2.0,97,0.00,,,0.00,Wunderground v.1.15,2013-10-08 05:49:00,
2013-10-08 01:51:00,47.5,46.7,30.11,South,175,1.0,2.0,97,0.00,,,0.00,Wunderground v.1.15,2013-10-08 05:51:00,
2013-10-08 01:52:00,47.5,46.7,30.11,South,175,1.0,2.0,97,0.00,,,0.00,Wunderground v.1.15,2013-10-08 05:52:00,
2013-10-08 01:54:00,47.6,47.1,30.11,South,175,1.0,2.0,98,0.00,,,0.00,Wunderground v.1.15,2013-10-08 05:54:00,
2013-10-08 01:55:00,47.6,47.1,30.11,South,175,1.0,2.0,98,0.00,,,0.00,Wunderground v.1.15,2013-10-08 05:55:00,
2013-10-08 01:56:00,47.6,47.1,30.11,South,175,1.0,2.0,98,0.00,,,0.00,Wunderground v.1.15,2013-10-08 05:56:00,
2013-10-08 01:57:00,47.6,47.1,30.11,South,175,1.0,2.0,98,0.00,,,0.00,Wunderground v.1.15,2013-10-08 05:57:00,
2013-10-08 01:58:00,47.5,46.7,30.11,South,175,1.0,2.0,97,0.00,,,0.00,Wunderground v.1.15,2013-10-08 05:58:00,
2013-10-08 02:02:00,47.4,46.6,30.11,South,175,1.0,2.0,97,0.00,,,0.00,Wunderground v.1.15,2013-10-08 06:02:00,
2013-10-08 02:03:00,47.4,46.6,30.11,South,175,1.0,3.0,97,0.00,,,0.00,Wunderground v.1.15,2013-10-08 06:03:00,
2013-10-08 02:07:00,47.6,47.1,30.11,South,175,1.0,3.0,98,0.00,,,0.00,Wunderground v.1.15,2013-10-08 06:07:00,
2013-10-08 02:08:00,47.6,47.1,30.11,South,175,1.0,3.0,98,0.00,,,0.00,Wunderground v.1.15,2013-10-08 06:08:00,
2013-10-08 02:10:00,47.5,47.0,30.11,South,175,1.0,2.0,98,0.00,,,0.00,Wunderground v.1.15,2013-10-08 06:10:00,
2013-10-08 02:12:00,47.4,46.6,30.11,South,175,1.0,2.0,97,0.00,,,0.00,Wunderground v.1.15,2013-10-08 06:12:00,
2013-10-08 02:13:00,47.3,46.5,30.11,South,175,1.0,2.0,97,0.00,,,0.00,Wunderground v.1.15,2013-10-08 06:13:00,
2013-10-08 02:15:00,47.2,46.4,30.11,South,175,0.0,2.0,97,0.00,,,0.00,Wunderground v.1.15,2013-10-08 06:15:00,
2013-10-08 02:16:00,47.2,46.4,30.11,South,175,0.0,2.0,97,0.00,,,0.00,Wunderground v.1.15,2013-10-08 06:16:00,
2013-10-08 02:18:00,47.0,46.2,30.11,South,175,0.0,2.0,97,0.00,,,0.00,Wunderground v.1.15,2013-10-08 06:18:00,
2013-10-08 02:20:00,47.0,46.2,30.11,South,175,0.0,2.0,97,0.00,,,0.00,Wunderground v.1.15,2013-10-08 06:20:00,
2013-10-08 02:23:00,46.9,46.1,30.11,South,175,0.0,2.0,97,0.00,,,0.00,Wunderground v.1.15,2013-10-08 06:23:00,
2013-10-08 02:24:00,46.9,46.1,30.11,South,175,0.0,2.0,97,0.00,,,0.00,Wunderground v.1.15,2013-10-08 06:24:00,
2013-10-08 02:25:00,46.9,46.1,30.11,South,175,0.0,2.0,97,0.00,,,0.00,Wunderground v.1.15,2013-10-08 06:25:00,
2013-10-08 02:29:00,47.0,46.5,30.11,South,175,0.0,2.0,98,0.00,,,0.00,Wunderground v.1.15,2013-10-08 06:29:00,
2013-10-08 02:30:00,47.0,46.5,30.11,South,175,0.0,2.0,98,0.00,,,0.00,Wunderground v.1.15,2013-10-08 06:30:00,
2013-10-08 02:31:00,47.0,46.5,30.11,South,175,0.0,2.0,98,0.00,,,0.00,Wunderground v.1.15,2013-10-08 06:31:00,
2013-10-08 02:33:00,47.1,46.6,30.12,South,175,0.0,2.0,98,0.00,,,0.00,Wunderground v.1.15,2013-10-08 06:33:00,
2013-10-08 02:35:00,47.2,46.7,30.11,South,175,0.0,2.0,98,0.00,,,0.00,Wunderground v.1.15,2013-10-08 06:35:00,
2013-10-08 02:37:00,47.3,46.8,30.11,South,175,0.0,2.0,98,0.00,,,0.00,Wunderground v.1.15,2013-10-08 06:37:00,
2013-10-08 02:38:00,47.3,46.8,30.11,South,175,0.0,2.0,98,0.00,,,0.00,Wunderground v.1.15,2013-10-08 06:38:00,
2013-10-08 02:39:00,47.4,46.9,30.11,South,175,0.0,2.0,98,0.00,,,0.00,Wunderground v.1.15,2013-10-08 06:39:00,
2013-10-08 02:40:00,47.4,46.9,30.11,South,175,0.0,2.0,98,0.00,,,0.00,Wunderground v.1.15,2013-10-08 06:40:00,
2013-10-08 02:43:00,47.5,47.0,30.11,South,175,1.0,2.0,98,0.00,,,0.00,Wunderground v.1.15,2013-10-08 06:43:00,
2013-10-08 02:44:00,47.5,47.0,30.11,South,175,1.0,2.0,98,0.00,,,0.00,Wunderground v.1.15,2013-10-08 06:44:00,
2013-10-08 02:45:00,47.5,47.0,30.11,South,175,1.0,2.0,98,0.00,,,0.00,Wunderground v.1.15,2013-10-08 06:45:00,
2013-10-08 02:46:00,47.5,47.0,30.11,South,175,1.0,2.0,98,0.00,,,0.00,Wunderground v.1.15,2013-10-08 06:46:00,
2013-10-08 02:48:00,47.4,46.9,30.11,South,175,1.0,2.0,98,0.00,,,0.00,Wunderground v.1.15,2013-10-08 06:48:00,
2013-10-08 02:49:00,47.4,46.9,30.11,South,175,1.0,2.0,98,0.00,,,0.00,Wunderground v.1.15,2013-10-08 06:49:00,
2013-10-08 02:52:00,47.3,46.5,30.11,South,175,1.0,2.0,97,0.00,,,0.00,Wunderground v.1.15,2013-10-08 06:52:00,
2013-10-08 02:53:00,47.3,46.5,30.11,South,175,1.0,2.0,97,0.00,,,0.00,Wunderground v.1.15,2013-10-08 06:53:00,
2013-10-08 02:55:00,47.1,46.3,30.11,South,175,1.0,2.0,97,0.00,,,0.00,Wunderground v.1.15,2013-10-08 06:55:00,
2013-10-08 02:58:00,46.8,46.0,30.11,South,175,1.0,2.0,97,0.00,,,0.00,Wunderground v.1.15,2013-10-08 06:58:00,
2013-10-08 02:59:00,46.7,45.6,30.11,South,175,0.0,2.0,96,0.00,,,0.00,Wunderground v.1.15,2013-10-08 06:59:00,
2013-10-08 03:00:00,46.6,45.5,30.11,South,175,0.0,2.0,96,0.00,,,0.00,Wunderground v.1.15,2013-10-08 07:00:00,
2013-10-08 03:04:00,46.4,45.6,30.11,South,175,1.0,2.0,97,0.00,,,0.00,Wunderground v.1.15,2013-10-08 07:04:00,
2013-10-08 03:05:00,46.4,45.6,30.11,South,175,1.0,2.0,97,0.00,,,0.00,Wunderground v.1.15,2013-10-08 07:05:00,
2013-10-08 03:06:00,46.5,45.7,30.11,South,175,1.0,2.0,97,0.00,,,0.00,Wunderground v.1.15,2013-10-08 07:06:00,
2013-10-08 03:07:00,46.5,46.0,30.11,South,175,1.0,2.0,98,0.00,,,0.00,Wunderground v.1.15,2013-10-08 07:07:00,
2013-10-08 03:10:00,46.7,46.2,30.11,South,175,1.0,2.0,98,0.00,,,0.00,Wunderground v.1.15,2013-10-08 07:10:00,
2013-10-08 03:11:00,46.7,46.2,30.11,South,174,1.0,2.0,98,0.00,,,0.00,Wunderground v.1.15,2013-10-08 07:11:00,
2013-10-08 03:12:00,46.8,46.3,30.11,South,174,1.0,2.0,98,0.00,,,0.00,Wunderground v.1.15,2013-10-08 07:12:00,
2013-10-08 03:15:00,46.9,46.4,30.11,South,173,1.0,2.0,98,0.00,,,0.00,Wunderground v.1.15,2013-10-08 07:15:00,
2013-10-08 03:17:00,46.9,46.4,30.11,South,173,1.0,2.0,98,0.00,,,0.00,Wunderground v.1.15,2013-10-08 07:17:00,
2013-10-08 03:18:00,46.9,46.4,30.11,South,173,1.0,2.0,98,0.00,,,0.00,Wunderground v.1.15,2013-10-08 07:18:00,
2013-10-08 03:22:00,46.9,46.4,30.11,South,173,1.0,2.0,98,0.00,,,0.00,Wunderground v.1.15,2013-10-08 07:22:00,
2013-10-08 03:23:00,46.9,46.4,30.11,South,173,1.0,2.0,98,0.00,,,0.00,Wunderground v.1.15,2013-10-08 07:23:00,
2013-10-08 03:26:00,46.8,46.3,30.11,South,173,1.0,2.0,98,0.00,,,0.00,Wunderground v.1.15,2013-10-08 07:26:00,
2013-10-08 03:28:00,46.7,46.2,30.10,South,173,1.0,2.0,98,0.00,,,0.00,Wunderground v.1.15,2013-10-08 07:28:00,
2013-10-08 03:29:00,46.7,45.9,30.10,South,173,0.0,2.0,97,0.00,,,0.00,Wunderground v.1.15,2013-10-08 07:29:00,
2013-10-08 03:30:00,46.7,46.2,30.10,South,173,0.0,2.0,98,0.00,,,0.00,Wunderground v.1.15,2013-10-08 07:30:00,
2013-10-08 03:31:00,46.7,46.2,30.10,South,173,0.0,2.0,98,0.00,,,0.00,Wunderground v.1.15,2013-10-08 07:31:00,
2013-10-08 03:34:00,46.7,46.2,30.11,South,174,0.0,2.0,98,0.00,,,0.00,Wunderground v.1.15,2013-10-08 07:34:00,
2013-10-08 03:37:00,46.5,45.7,30.10,South,180,0.0,3.0,97,0.00,,,0.00,Wunderground v.1.15,2013-10-08 07:37:00,
2013-10-08 03:38:00,46.4,45.6,30.10,South,180,1.0,3.0,97,0.00,,,0.00,Wunderground v.1.15,2013-10-08 07:38:00,
2013-10-08 03:40:00,46.3,45.5,30.10,South,180,1.0,2.0,97,0.00,,,0.00,Wunderground v.1.15,2013-10-08 07:40:00,
2013-10-08 03:44:00,46.2,45.7,30.10,South,173,1.0,2.0,98,0.00,,,0.00,Wunderground v.1.15,2013-10-08 07:44:00,
2013-10-08 03:46:00,46.2,45.7,30.10,South,173,1.0,2.0,98,0.00,,,0.00,Wunderground v.1.15,2013-10-08 07:46:00,
2013-10-08 03:47:00,46.1,45.6,30.10,South,173,1.0,2.0,98,0.00,,,0.00,Wunderground v.1.15,2013-10-08 07:47:00,
2013-10-08 03:48:00,46.1,45.6,30.10,South,173,1.0,2.0,98,0.00,,,0.00,Wunderground v.1.15,2013-10-08 07:48:00,
2013-10-08 03:49:00,46.1,45.6,30.10,South,173,1.0,2.0,98,0.00,,,0.00,Wunderground v.1.15,2013-10-08 07:49:00,
2013-10-08 03:50:00,46.1,45.6,30.10,South,172,1.0,2.0,98,0.00,,,0.00,Wunderground v.1.15,2013-10-08 07:50:00,
2013-10-08 03:51:00,46.1,45.6,30.10,South,172,1.0,2.0,98,0.00,,,0.00,Wunderground v.1.15,2013-10-08 07:51:00,
2013-10-08 03:54:00,46.3,45.8,30.10,South,172,1.0,2.0,98,0.00,,,0.00,Wunderground v.1.15,2013-10-08 07:54:00,
2013-10-08 03:57:00,46.4,45.9,30.10,South,172,1.0,2.0,98,0.00,,,0.00,Wunderground v.1.15,2013-10-08 07:57:00,
2013-10-08 03:58:00,46.4,45.9,30.10,South,172,1.0,2.0,98,0.00,,,0.00,Wunderground v.1.15,2013-10-08 07:58:00,
2013-10-08 03:59:00,46.4,45.9,30.10,South,172,1.0,2.0,98,0.00,,,0.00,Wunderground v.1.15,2013-10-08 07:59:00,
2013-10-08 04:02:00,46.2,45.7,30.10,South,172,0.0,2.0,98,0.00,,,0.00,Wunderground v.1.15,2013-10-08 08:02:00,
2013-10-08 04:03:00,46.2,45.7,30.10,South,172,0.0,2.0,98,0.00,,,0.00,Wunderground v.1.15,2013-10-08 08:03:00,
2013-10-08 04:04:00,46.2,45.7,30.10,South,172,0.0,2.0,98,0.00,,,0.00,Wunderground v.1.15,2013-10-08 08:04:00,
2013-10-08 04:05:00,46.1,45.6,30.10,South,172,0.0,2.0,98,0.00,,,0.00,Wunderground v.1.15,2013-10-08 08:05:00,
2013-10-08 04:07:00,46.0,45.5,30.10,South,172,0.0,2.0,98,0.00,,,0.00,Wunderground v.1.15,2013-10-08 08:07:00,
2013-10-08 04:09:00,46.0,45.5,30.10,South,172,0.0,2.0,98,0.00,,,0.00,Wunderground v.1.15,2013-10-08 08:09:00,
2013-10-08 04:10:00,46.1,45.6,30.10,South,172,1.0,1.0,98,0.00,,,0.00,Wunderground v.1.15,2013-10-08 08:10:00,
2013-10-08 04:14:00,46.1,45.6,30.10,South,172,0.0,2.0,98,0.00,,,0.00,Wunderground v.1.15,2013-10-08 08:14:00,
2013-10-08 04:16:00,46.1,45.6,30.10,South,172,0.0,2.0,98,0.00,,,0.00,Wunderground v.1.15,2013-10-08 08:16:00,
2013-10-08 04:17:00,46.1,45.6,30.10,South,172,0.0,2.0,98,0.00,,,0.00,Wunderground v.1.15,2013-10-08 08:17:00,
2013-10-08 04:19:00,46.0,45.5,30.10,South,172,0.0,2.0,98,0.00,,,0.00,Wunderground v.1.15,2013-10-08 08:19:00,
2013-10-08 04:21:00,46.0,45.5,30.10,South,172,0.0,2.0,98,0.00,,,0.00,Wunderground v.1.15,2013-10-08 08:21:00,
2013-10-08 04:23:00,46.0,45.5,30.10,South,172,0.0,2.0,98,0.00,,,0.00,Wunderground v.1.15,2013-10-08 08:23:00,
2013-10-08 04:25:00,46.0,45.5,30.11,South,172,0.0,2.0,98,0.00,,,0.00,Wunderground v.1.15,2013-10-08 08:25:00,
2013-10-08 04:27:00,46.1,45.6,30.11,South,172,0.0,2.0,98,0.00,,,0.00,Wunderground v.1.15,2013-10-08 08:27:00,
2013-10-08 04:28:00,46.1,45.6,30.11,South,173,0.0,2.0,98,0.00,,,0.00,Wunderground v.1.15,2013-10-08 08:28:00,
2013-10-08 04:30:00,46.1,45.6,30.11,South,172,0.0,2.0,98,0.00,,,0.00,Wunderground v.1.15,2013-10-08 08:30:00,
2013-10-08 04:31:00,46.0,45.5,30.11,South,172,0.0,2.0,98,0.00,,,0.00,Wunderground v.1.15,2013-10-08 08:31:00,
2013-10-08 04:32:00,46.0,45.5,30.11,South,173,0.0,2.0,98,0.00,,,0.00,Wunderground v.1.15,2013-10-08 08:32:00,
2013-10-08 04:33:00,45.9,45.4,30.11,South,172,1.0,2.0,98,0.00,,,0.00,Wunderground v.1.15,2013-10-08 08:33:00,
2013-10-08 04:35:00,45.9,45.4,30.11,South,172,1.0,2.0,98,0.00,,,0.00,Wunderground v.1.15,2013-10-08 08:35:00,
2013-10-08 04:37:00,45.8,45.3,30.11,South,172,1.0,2.0,98,0.00,,,0.00,Wunderground v.1.15,2013-10-08 08:37:00,
2013-10-08 04:38:00,45.9,45.4,30.12,South,172,1.0,2.0,98,0.00,,,0.00,Wunderground v.1.15,2013-10-08 08:38:00,
2013-10-08 04:39:00,45.9,45.4,30.12,South,172,1.0,2.0,98,0.00,,,0.00,Wunderground v.1.15,2013-10-08 08:39:00,
2013-10-08 04:41:00,45.9,45.4,30.12,South,172,0.0,2.0,98,0.00,,,0.00,Wunderground v.1.15,2013-10-08 08:41:00,
2013-10-08 04:44:00,45.8,45.3,30.12,South,172,0.0,2.0,98,0.00,,,0.00,Wunderground v.1.15,2013-10-08 08:44:00,
2013-10-08 04:45:00,45.7,45.2,30.12,South,172,0.0,2.0,98,0.00,,,0.00,Wunderground v.1.15,2013-10-08 08:45:00,
2013-10-08 04:46:00,45.7,45.2,30.12,South,172,0.0,2.0,98,0.00,,,0.00,Wunderground v.1.15,2013-10-08 08:46:00,
2013-10-08 04:47:00,45.7,45.2,30.12,South,172,0.0,2.0,98,0.00,,,0.00,Wunderground v.1.15,2013-10-08 08:47:00,
2013-10-08 04:50:00,45.7,45.2,30.12,South,172,0.0,2.0,98,0.00,,,0.00,Wunderground v.1.15,2013-10-08 08:50:00,
2013-10-08 04:52:00,45.8,45.3,30.13,South,172,0.0,2.0,98,0.00,,,0.00,Wunderground v.1.15,2013-10-08 08:52:00,
2013-10-08 04:54:00,45.8,45.3,30.13,South,172,0.0,2.0,98,0.00,,,0.00,Wunderground v.1.15,2013-10-08 08:54:00,
2013-10-08 04:55:00,45.8,45.3,30.13,South,172,0.0,2.0,98,0.00,,,0.00,Wunderground v.1.15,2013-10-08 08:55:00,
2013-10-08 04:56:00,45.8,45.3,30.13,South,172,0.0,2.0,98,0.00,,,0.00,Wunderground v.1.15,2013-10-08 08:56:00,
2013-10-08 04:59:00,45.8,45.3,30.13,South,173,0.0,2.0,98,0.00,,,0.00,Wunderground v.1.15,2013-10-08 08:59:00,
2013-10-08 05:02:00,45.8,45.3,30.13,South,172,1.0,2.0,98,0.00,,,0.00,Wunderground v.1.15,2013-10-08 09:02:00,
2013-10-08 05:03:00,45.9,45.4,30.13,South,172,1.0,2.0,98,0.00,,,0.00,Wunderground v.1.15,2013-10-08 09:03:00,
2013-10-08 05:04:00,45.9,45.4,30.13,South,172,1.0,2.0,98,0.00,,,0.00,Wunderground v.1.15,2013-10-08 09:04:00,
2013-10-08 05:05:00,46.0,45.5,30.13,South,172,1.0,2.0,98,0.00,,,0.00,Wunderground v.1.15,2013-10-08 09:05:00,
2013-10-08 05:07:00,46.0,45.7,30.13,South,172,1.0,2.0,99,0.00,,,0.00,Wunderground v.1.15,2013-10-08 09:07:00,
2013-10-08 05:08:00,46.0,45.7,30.13,South,172,0.0,2.0,99,0.00,,,0.00,Wunderground v.1.15,2013-10-08 09:08:00,
2013-10-08 05:10:00,45.9,45.4,30.13,South,172,0.0,2.0,98,0.00,,,0.00,Wunderground v.1.15,2013-10-08 09:10:00,
2013-10-08 05:11:00,45.8,45.3,30.13,South,172,0.0,2.0,98,0.00,,,0.00,Wunderground v.1.15,2013-10-08 09:11:00,
2013-10-08 05:12:00,45.8,45.3,30.13,South,172,0.0,2.0,98,0.00,,,0.00,Wunderground v.1.15,2013-10-08 09:12:00,
2013-10-08 05:14:00,45.8,45.3,30.14,South,172,0.0,2.0,98,0.00,,,0.00,Wunderground v.1.15,2013-10-08 09:14:00,
2013-10-08 05:15:00,45.8,45.3,30.14,South,172,0.0,2.0,98,0.00,,,0.00,Wunderground v.1.15,2013-10-08 09:15:00,
2013-10-08 05:16:00,45.8,45.3,30.14,South,172,0.0,2.0,98,0.00,,,0.00,Wunderground v.1.15,2013-10-08 09:16:00,
2013-10-08 05:19:00,45.7,45.2,30.14,South,172,0.0,2.0,98,0.00,,,0.00,Wunderground v.1.15,2013-10-08 09:19:00,
2013-10-08 05:20:00,45.7,45.2,30.14,South,172,0.0,2.0,98,0.00,,,0.00,Wunderground v.1.15,2013-10-08 09:20:00,
2013-10-08 05:23:00,45.6,45.1,30.14,South,173,0.0,2.0,98,0.00,,,0.00,Wunderground v.1.15,2013-10-08 09:23:00,
2013-10-08 05:25:00,45.6,45.1,30.14,South,172,0.0,2.0,98,0.00,,,0.00,Wunderground v.1.15,2013-10-08 09:25:00,
2013-10-08 05:26:00,45.5,45.0,30.14,South,172,0.0,2.0,98,0.00,,,0.00,Wunderground v.1.15,2013-10-08 09:26:00,
2013-10-08 05:27:00,45.5,45.0,30.14,South,172,1.0,2.0,98,0.00,,,0.00,Wunderground v.1.15,2013-10-08 09:27:00,
2013-10-08 05:28:00,45.4,44.9,30.14,South,172,0.0,2.0,98,0.00,,,0.00,Wunderground v.1.15,2013-10-08 09:28:00,
2013-10-08 05:32:00,45.2,44.7,30.14,South,172,0.0,2.0,98,0.00,,,0.00,Wunderground v.1.15,2013-10-08 09:32:00,
2013-10-08 05:33:00,45.2,44.7,30.14,South,172,0.0,2.0,98,0.00,,,0.00,Wunderground v.1.15,2013-10-08 09:33:00,
2013-10-08 05:36:00,45.1,44.6,30.14,South,172,0.0,2.0,98,0.00,,,0.00,Wunderground v.1.15,2013-10-08 09:36:00,
2013-10-08 05:38:00,45.1,44.6,30.14,South,172,0.0,2.0,98,0.00,,,0.00,Wunderground v.1.15,2013-10-08 09:38:00,
2013-10-08 05:39:00,45.1,44.6,30.14,South,172,0.0,2.0,98,0.00,,,0.00,Wunderground v.1.15,2013-10-08 09:39:00,
2013-10-08 05:41:00,45.1,44.6,30.15,South,172,0.0,2.0,98,0.00,,,0.00,Wunderground v.1.15,2013-10-08 09:41:00,
2013-10-08 05:45:00,45.0,44.5,30.15,South,172,0.0,2.0,98,0.00,,,0.00,Wunderground v.1.15,2013-10-08 09:45:00,
2013-10-08 05:46:00,45.0,44.5,30.15,South,172,0.0,2.0,98,0.00,,,0.00,Wunderground v.1.15,2013-10-08 09:46:00,
2013-10-08 05:47:00,44.9,44.4,30.15,South,172,0.0,2.0,98,0.00,,,0.00,Wunderground v.1.15,2013-10-08 09:47:00,
2013-10-08 05:50:00,44.9,44.4,30.15,South,172,0.0,2.0,98,0.00,,,0.00,Wunderground v.1.15,2013-10-08 09:50:00,
2013-10-08 05:51:00,44.9,44.4,30.16,South,172,0.0,2.0,98,0.00,,,0.00,Wunderground v.1.15,2013-10-08 09:51:00,
2013-10-08 05:53:00,44.8,44.3,30.16,South,172,0.0,2.0,98,0.00,,,0.00,Wunderground v.1.15,2013-10-08 09:53:00,
2013-10-08 05:57:00,44.8,44.3,30.16,South,172,0.0,2.0,98,0.00,,,0.00,Wunderground v.1.15,2013-10-08 09:57:00,
2013-10-08 05:58:00,44.8,44.3,30.16,South,172,0.0,2.0,98,0.00,,,0.00,Wunderground v.1.15,2013-10-08 09:58:00,
2013-10-08 05:59:00,44.8,44.3,30.16,South,172,0.0,2.0,98,0.00,,,0.00,Wunderground v.1.15,2013-10-08 09:59:00,
2013-10-08 06:01:00,44.8,44.3,30.16,South,172,0.0,2.0,98,0.00,,,0.00,Wunderground v.1.15,2013-10-08 10:01:00,
2013-10-08 06:05:00,45.0,44.7,30.16,South,172,0.0,2.0,99,0.00,,,0.00,Wunderground v.1.15,2013-10-08 10:05:00,
2013-10-08 06:06:00,45.1,44.8,30.16,South,172,0.0,2.0,99,0.00,,,0.00,Wunderground v.1.15,2013-10-08 10:06:00,
2013-10-08 06:08:00,45.1,44.8,30.16,South,172,0.0,2.0,99,0.00,,,0.00,Wunderground v.1.15,2013-10-08 10:08:00,
2013-10-08 06:10:00,45.0,44.7,30.16,South,172,0.0,2.0,99,0.00,,,0.00,Wunderground v.1.15,2013-10-08 10:10:00,
2013-10-08 06:13:00,44.9,44.6,30.17,South,172,0.0,2.0,99,0.00,,,0.00,Wunderground v.1.15,2013-10-08 10:13:00,
2013-10-08 06:15:00,44.8,44.3,30.17,South,173,0.0,2.0,98,0.00,,,0.00,Wunderground v.1.15,2013-10-08 10:15:00,
2013-10-08 06:16:00,44.7,44.2,30.17,South,172,0.0,2.0,98,0.00,,,0.00,Wunderground v.1.15,2013-10-08 10:16:00,
2013-10-08 06:18:00,44.7,44.2,30.17,South,172,0.0,2.0,98,0.00,,,0.00,Wunderground v.1.15,2013-10-08 10:18:00,
2013-10-08 06:19:00,44.7,44.2,30.17,South,172,0.0,2.0,98,0.00,,,0.00,Wunderground v.1.15,2013-10-08 10:19:00,
2013-10-08 06:23:00,44.6,44.1,30.17,South,173,0.0,2.0,98,0.00,,,0.00,Wunderground v.1.15,2013-10-08 10:23:00,
2013-10-08 06:24:00,44.6,44.1,30.17,South,172,0.0,2.0,98,0.00,,,0.00,Wunderground v.1.15,2013-10-08 10:24:00,
2013-10-08 06:25:00,44.6,44.1,30.17,South,172,0.0,2.0,98,0.00,,,0.00,Wunderground v.1.15,2013-10-08 10:25:00,
2013-10-08 06:26:00,44.6,44.1,30.17,South,172,0.0,2.0,98,0.00,,,0.00,Wunderground v.1.15,2013-10-08 10:26:00,
2013-10-08 06:30:00,44.6,44.1,30.17,South,172,0.0,2.0,98,0.00,,,0.00,Wunderground v.1.15,2013-10-08 10:30:00,
2013-10-08 06:31:00,44.7,44.2,30.17,South,172,0.0,2.0,98,0.00,,,0.00,Wunderground v.1.15,2013-10-08 10:31:00,
2013-10-08 06:33:00,44.7,44.2,30.17,South,172,0.0,2.0,98,0.00,,,0.00,Wunderground v.1.15,2013-10-08 10:33:00,
2013-10-08 06:35:00,44.6,44.1,30.18,South,172,0.0,2.0,98,0.00,,,0.00,Wunderground v.1.15,2013-10-08 10:35:00,
2013-10-08 06:38:00,44.7,44.4,30.18,South,172,0.0,2.0,99,0.00,,,0.00,Wunderground v.1.15,2013-10-08 10:38:00,
2013-10-08 06:39:00,44.7,44.4,30.18,South,172,0.0,2.0,99,0.00,,,0.00,Wunderground v.1.15,2013-10-08 10:39:00,
2013-10-08 06:40:00,44.7,44.4,30.18,South,172,0.0,2.0,99,0.00,,,0.00,Wunderground v.1.15,2013-10-08 10:40:00,
2013-10-08 06:44:00,44.5,44.0,30.18,South,172,0.0,2.0,98,0.00,,,0.00,Wunderground v.1.15,2013-10-08 10:44:00,
2013-10-08 06:45:00,44.5,44.0,30.18,South,172,0.0,2.0,98,0.00,,,0.00,Wunderground v.1.15,2013-10-08 10:45:00,
2013-10-08 06:47:00,44.4,43.9,30.18,South,172,0.0,2.0,98,0.00,,,0.00,Wunderground v.1.15,2013-10-08 10:47:00,
2013-10-08 06:49:00,44.3,43.8,30.18,South,172,0.0,2.0,98,0.00,,,0.00,Wunderground v.1.15,2013-10-08 10:49:00,
2013-10-08 06:53:00,44.2,43.7,30.18,South,172,0.0,2.0,98,0.00,,,0.00,Wunderground v.1.15,2013-10-08 10:53:00,
2013-10-08 06:54:00,44.2,43.7,30.18,South,172,0.0,2.0,98,0.00,,,0.00,Wunderground v.1.15,2013-10-08 10:54:00,
2013-10-08 06:58:00,44.4,44.1,30.18,South,172,0.0,2.0,99,0.00,,,0.00,Wunderground v.1.15,2013-10-08 10:58:00,
2013-10-08 06:59:00,44.4,44.1,30.19,South,172,0.0,2.0,99,0.00,,,0.00,Wunderground v.1.15,2013-10-08 10:59:00,
2013-10-08 07:00:00,44.4,44.1,30.19,South,172,0.0,2.0,99,0.00,,,0.00,Wunderground v.1.15,2013-10-08 11:00:00,
2013-10-08 07:01:00,44.4,44.1,30.19,South,172,0.0,2.0,99,0.00,,,0.00,Wunderground v.1.15,2013-10-08 11:01:00,
2013-10-08 07:02:00,44.4,44.1,30.19,South,172,0.0,2.0,99,0.00,,,0.00,Wunderground v.1.15,2013-10-08 11:02:00,
2013-10-08 07:05:00,44.3,44.0,30.19,South,172,0.0,2.0,99,0.00,,,0.00,Wunderground v.1.15,2013-10-08 11:05:00,
2013-10-08 07:06:00,44.3,44.0,30.19,South,172,0.0,2.0,99,0.00,,,0.00,Wunderground v.1.15,2013-10-08 11:06:00,
2013-10-08 07:08:00,44.3,44.0,30.19,South,172,0.0,2.0,99,0.00,,,0.00,Wunderground v.1.15,2013-10-08 11:08:00,
2013-10-08 07:09:00,44.3,44.0,30.19,South,173,0.0,2.0,99,0.00,,,0.00,Wunderground v.1.15,2013-10-08 11:09:00,
2013-10-08 07:11:00,44.4,44.1,30.19,South,172,0.0,2.0,99,0.00,,,0.00,Wunderground v.1.15,2013-10-08 11:11:00,
2013-10-08 07:15:00,44.5,44.2,30.19,South,172,0.0,2.0,99,0.00,,,0.00,Wunderground v.1.15,2013-10-08 11:15:00,
2013-10-08 07:16:00,44.6,44.3,30.19,South,172,0.0,2.0,99,0.00,,,0.00,Wunderground v.1.15,2013-10-08 11:16:00,
2013-10-08 07:18:00,44.7,44.4,30.20,South,172,0.0,2.0,99,0.00,,,0.00,Wunderground v.1.15,2013-10-08 11:18:00,
2013-10-08 07:20:00,44.6,44.3,30.20,South,173,0.0,2.0,99,0.00,,,0.00,Wunderground v.1.15,2013-10-08 11:20:00,
2013-10-08 07:23:00,44.4,44.1,30.20,South,172,0.0,2.0,99,0.00,,,0.00,Wunderground v.1.15,2013-10-08 11:23:00,
2013-10-08 07:24:00,44.3,44.0,30.20,South,172,0.0,2.0,99,0.00,,,0.00,Wunderground v.1.15,2013-10-08 11:24:00,
2013-10-08 07:27:00,44.2,43.7,30.20,South,172,0.0,2.0,98,0.00,,,0.00,Wunderground v.1.15,2013-10-08 11:27:00,
2013-10-08 07:28:00,44.2,43.7,30.20,South,172,0.0,2.0,98,0.00,,,0.00,Wunderground v.1.15,2013-10-08 11:28:00,
2013-10-08 07:29:00,44.2,43.7,30.20,South,172,0.0,2.0,98,0.00,,,0.00,Wunderground v.1.15,2013-10-08 11:29:00,
2013-10-08 07:30:00,44.2,43.7,30.20,South,172,0.0,2.0,98,0.00,,,0.00,Wunderground v.1.15,2013-10-08 11:30:00,
2013-10-08 07:34:00,44.1,43.6,30.21,South,172,0.0,2.0,98,0.00,,,0.00,Wunderground v.1.15,2013-10-08 11:34:00,
2013-10-08 07:36:00,44.1,43.8,30.21,South,172,0.0,2.0,99,0.00,,,0.00,Wunderground v.1.15,2013-10-08 11:36:00,
2013-10-08 07:37:00,44.2,43.9,30.21,South,172,0.0,2.0,99,0.00,,,0.00,Wunderground v.1.15,2013-10-08 11:37:00,
2013-10-08 07:39:00,44.2,43.9,30.21,South,172,0.0,2.0,99,0.00,,,0.00,Wunderground v.1.15,2013-10-08 11:39:00,
2013-10-08 07:40:00,44.3,44.0,30.21,South,172,0.0,2.0,99,0.00,,,0.00,Wunderground v.1.15,2013-10-08 11:40:00,
2013-10-08 07:42:00,44.3,44.0,30.21,South,172,0.0,2.0,99,0.00,,,0.00,Wunderground v.1.15,2013-10-08 11:42:00,
2013-10-08 07:47:00,44.5,44.2,30.21,South,172,0.0,2.0,99,0.00,,,0.00,Wunderground v.1.15,2013-10-08 11:47:00,
2013-10-08 07:48:00,44.5,44.2,30.21,South,172,0.0,2.0,99,0.00,,,0.00,Wunderground v.1.15,2013-10-08 11:48:00,
2013-10-08 07:49:00,44.5,44.2,30.21,South,172,0.0,2.0,99,0.00,,,0.00,Wunderground v.1.15,2013-10-08 11:49:00,
2013-10-08 07:50:00,44.5,44.2,30.21,South,172,0.0,2.0,99,0.00,,,0.00,Wunderground v.1.15,2013-10-08 11:50:00,
2013-10-08 07:52:00,44.5,44.2,30.21,SE,140,0.0,2.0,99,0.00,,,0.01,Wunderground v.1.15,2013-10-08 11:52:00,
2013-10-08 07:53:00,44.4,44.1,30.21,SE,140,0.0,2.0,99,0.00,,,0.01,Wunderground v.1.15,2013-10-08 11:53:00,
2013-10-08 07:56:00,44.4,44.1,30.22,SE,140,0.0,2.0,99,0.00,,,0.01,Wunderground v.1.15,2013-10-08 11:56:00,
2013-10-08 07:59:00,44.3,44.0,30.22,SE,140,0.0,2.0,99,0.00,,,0.01,Wunderground v.1.15,2013-10-08 11:59:00,
2013-10-08 08:00:00,44.3,44.0,30.22,SE,140,0.0,2.0,99,0.00,,,0.01,Wunderground v.1.15,2013-10-08 12:00:00,
2013-10-08 08:03:00,44.5,44.2,30.22,SE,140,0.0,2.0,99,0.00,,,0.01,Wunderground v.1.15,2013-10-08 12:03:00,
2013-10-08 08:05:00,44.5,44.2,30.22,SE,140,0.0,2.0,99,0.00,,,0.01,Wunderground v.1.15,2013-10-08 12:05:00,
2013-10-08 08:06:00,44.5,44.2,30.23,SE,140,0.0,2.0,99,0.00,,,0.01,Wunderground v.1.15,2013-10-08 12:06:00,
2013-10-08 08:07:00,44.5,44.2,30.22,SE,140,0.0,2.0,99,0.00,,,0.01,Wunderground v.1.15,2013-10-08 12:07:00,
2013-10-08 08:11:00,44.6,44.3,30.23,SE,140,0.0,2.0,99,0.00,,,0.01,Wunderground v.1.15,2013-10-08 12:11:00,
2013-10-08 08:12:00,44.6,44.3,30.23,SE,140,0.0,2.0,99,0.00,,,0.01,Wunderground v.1.15,2013-10-08 12:12:00,
2013-10-08 08:13:00,44.6,44.3,30.23,SE,140,0.0,2.0,99,0.00,,,0.01,Wunderground v.1.15,2013-10-08 12:13:00,
2013-10-08 08:15:00,44.7,44.4,30.23,SE,140,0.0,2.0,99,0.00,,,0.01,Wunderground v.1.15,2013-10-08 12:15:00,
2013-10-08 08:17:00,44.8,44.5,30.23,SE,140,0.0,2.0,99,0.00,,,0.01,Wunderground v.1.15,2013-10-08 12:17:00,
2013-10-08 08:18:00,44.9,44.6,30.23,SE,140,0.0,2.0,99,0.00,,,0.01,Wunderground v.1.15,2013-10-08 12:18:00,
2013-10-08 08:19:00,45.0,44.7,30.23,NE,51,0.0,5.0,99,0.00,,,0.01,Wunderground v.1.15,2013-10-08 12:19:00,
2013-10-08 08:21:00,45.4,45.1,30.23,NNE,31,1.0,2.0,99,0.00,,,0.01,Wunderground v.1.15,2013-10-08 12:21:00,
2013-10-08 08:23:00,45.6,45.3,30.23,NNE,31,1.0,2.0,99,0.00,,,0.01,Wunderground v.1.15,2013-10-08 12:23:00,
2013-10-08 08:24:00,45.8,45.5,30.23,NNE,31,1.0,2.0,99,0.00,,,0.01,Wunderground v.1.15,2013-10-08 12:24:00,
2013-10-08 08:26:00,46.1,45.8,30.23,NNE,30,1.0,7.0,99,0.00,,,0.01,Wunderground v.1.15,2013-10-08 12:26:00,
2013-10-08 08:27:00,46.6,46.3,30.23,ENE,74,2.0,7.0,99,0.00,,,0.01,Wunderground v.1.15,2013-10-08 12:27:00,
2013-10-08 08:29:00,47.4,46.6,30.23,NE,49,3.0,7.0,97,0.00,,,0.01,Wunderground v.1.15,2013-10-08 12:29:00,
2013-10-08 08:30:00,47.8,46.4,30.24,NE,55,3.0,6.0,95,0.00,,,0.01,Wunderground v.1.15,2013-10-08 12:30:00,
2013-10-08 08:33:00,48.6,45.8,30.23,NE,34,4.0,7.0,90,0.00,,,0.01,Wunderground v.1.15,2013-10-08 12:33:00,
2013-10-08 08:34:00,48.9,45.5,30.23,East,82,4.0,7.0,88,0.00,,,0.01,Wunderground v.1.15,2013-10-08 12:34:00,
2013-10-08 08:36:00,49.5,46.1,30.24,East,85,5.0,7.0,88,0.00,,,0.01,Wunderground v.1.15,2013-10-08 12:36:00,
2013-10-08 08:37:00,49.7,46.0,30.24,NE,36,4.0,7.0,87,0.00,,,0.01,Wunderground v.1.15,2013-10-08 12:37:00,
2013-10-08 08:40:00,50.4,45.7,30.24,ESE,103,4.0,4.0,84,0.00,,,0.01,Wunderground v.1.15,2013-10-08 12:40:00,
2013-10-08 08:41:00,50.6,45.6,30.24,ENE,64,4.0,4.0,83,0.00,,,0.01,Wunderground v.1.15,2013-10-08 12:41:00,
2013-10-08 08:42:00,50.8,46.1,30.24,East,90,4.0,4.0,84,0.00,,,0.01,Wunderground v.1.15,2013-10-08 12:42:00,
2013-10-08 08:43:00,51.1,45.8,30.24,ESE,103,5.0,5.0,82,0.00,,,0.01,Wunderground v.1.15,2013-10-08 12:43:00,
2013-10-08 08:45:00,51.5,45.2,30.24,ENE,68,5.0,7.0,79,0.00,,,0.01,Wunderground v.1.15,2013-10-08 12:45:00,
2013-10-08 08:46:00,51.7,45.7,30.24,East,82,5.0,7.0,80,0.00,,,0.01,Wunderground v.1.15,2013-10-08 12:46:00,
2013-10-08 08:49:00,52.2,45.5,30.24,NE,36,5.0,10.0,78,0.00,,,0.01,Wunderground v.1.15,2013-10-08 12:49:00,
2013-10-08 08:50:00,52.4,44.7,30.24,ENE,73,6.0,8.0,75,0.00,,,0.01,Wunderground v.1.15,2013-10-08 12:50:00,
2013-10-08 08:52:00,52.8,45.1,30.24,East,79,7.0,9.0,75,0.00,,,0.01,Wunderground v.1.15,2013-10-08 12:52:00,
2013-10-08 08:53:00,52.9,45.2,30.24,ESE,108,7.0,9.0,75,0.00,,,0.01,Wunderground v.1.15,2013-10-08 12:53:00,
2013-10-08 08:54:00,53.0,45.3,30.24,ENE,67,7.0,13.0,75,0.00,,,0.01,Wunderground v.1.15,2013-10-08 12:54:00,
2013-10-08 08:55:00,53.2,45.1,30.24,NE,41,7.0,13.0,74,0.00,,,0.01,Wunderground v.1.15,2013-10-08 12:55:00,
2013-10-08 08:56:00,53.3,44.5,30.24,East,86,8.0,13.0,72,0.00,,,0.01,Wunderground v.1.15,2013-10-08 12:56:00,
2013-10-08 08:58:00,53.5,44.7,30.24,ENE,67,10.0,13.0,72,0.00,,,0.01,Wunderground v.1.15,2013-10-08 12:58:00,
2013-10-08 08:59:00,53.5,44.7,30.24,NE,55,10.0,13.0,72,0.00,,,0.01,Wunderground v.1.15,2013-10-08 12:59:00,
2013-10-08 09:00:00,53.5,44.3,30.24,ENE,69,10.0,10.0,71,0.00,,,0.01,Wunderground v.1.15,2013-10-08 13:00:00,
2013-10-08 09:01:00,53.5,44.3,30.25,ENE,65,10.0,10.0,71,0.00,,,0.01,Wunderground v.1.15,2013-10-08 13:01:00,
2013-10-08 09:02:00,53.5,44.7,30.25,ENE,71,10.0,10.0,72,0.00,,,0.01,Wunderground v.1.15,2013-10-08 13:02:00,
2013-10-08 09:04:00,53.4,44.2,30.25,ENE,78,10.0,10.0,71,0.00,,,0.01,Wunderground v.1.15,2013-10-08 13:04:00,
2013-10-08 09:06:00,53.4,43.9,30.25,East,79,10.0,14.0,70,0.00,,,0.01,Wunderground v.1.15,2013-10-08 13:06:00,
2013-10-08 09:07:00,53.4,44.2,30.25,ENE,67,10.0,14.0,71,0.00,,,0.01,Wunderground v.1.15,2013-10-08 13:07:00,
2013-10-08 09:09:00,53.4,44.6,30.25,NNE,22,10.0,14.0,72,0.00,,,0.01,Wunderground v.1.15,2013-10-08 13:09:00,
2013-10-08 09:10:00,53.4,44.6,30.25,East,88,10.0,10.0,72,0.00,,,0.01,Wunderground v.1.15,2013-10-08 13:10:00,
2013-10-08 09:11:00,53.5,44.7,30.25,ENE,59,10.0,10.0,72,0.00,,,0.01,Wunderground v.1.15,2013-10-08 13:11:00,
2013-10-08 09:13:00,53.6,44.8,30.25,ESE,110,10.0,10.0,72,0.00,,,0.01,Wunderground v.1.15,2013-10-08 13:13:00,
2013-10-08 09:14:00,53.6,45.2,30.25,ENE,67,9.0,10.0,73,0.00,,,0.01,Wunderground v.1.15,2013-10-08 13:14:00,
2013-10-08 09:15:00,53.6,44.0,30.25,East,98,10.0,11.0,70,0.00,,,0.01,Wunderground v.1.15,2013-10-08 13:15:00,
2013-10-08 09:16:00,53.6,44.8,30.25,ENE,63,9.0,15.0,72,0.00,,,0.01,Wunderground v.1.15,2013-10-08 13:16:00,
2013-10-08 09:19:00,53.6,44.4,30.26,ENE,63,10.0,15.0,71,0.00,,,0.01,Wunderground v.1.15,2013-10-08 13:19:00,
2013-10-08 09:21:00,53.6,44.8,30.26,NNE,32,10.0,10.0,72,0.00,,,0.01,Wunderground v.1.15,2013-10-08 13:21:00,
2013-10-08 09:22:00,53.5,44.7,30.26,East,80,10.0,10.0,72,0.00,,,0.01,Wunderground v.1.15,2013-10-08 13:22:00,
2013-10-08 09:23:00,53.5,44.7,30.26,East,79,10.0,13.0,72,0.00,,,0.01,Wunderground v.1.15,2013-10-08 13:23:00,
2013-10-08 09:24:00,53.4,45.0,30.26,NE,53,10.0,13.0,73,0.00,,,0.01,Wunderground v.1.15,2013-10-08 13:24:00,
2013-10-08 09:25:00,53.4,45.0,30.26,ENE,74,9.0,13.0,73,0.00,,,0.01,Wunderground v.1.15,2013-10-08 13:25:00,
2013-10-08 09:28:00,53.3,45.2,30.26,NE,34,8.0,13.0,74,0.00,,,0.01,Wunderground v.1.15,2013-10-08 13:28:00,
2013-10-08 09:29:00,53.3,45.2,30.26,ENE,62,8.0,18.0,74,0.00,,,0.01,Wunderground v.1.15,2013-10-08 13:29:00,
2013-10-08 09:31:00,53.3,45.6,30.26,NE,49,9.0,11.0,75,0.00,,,0.01,Wunderground v.1.15,2013-10-08 13:31:00,
2013-10-08 09:32:00,53.4,45.3,30.26,East,82,9.0,11.0,74,0.00,,,0.01,Wunderground v.1.15,2013-10-08 13:32:00,
2013-10-08 09:34:00,53.4,45.3,30.26,East,101,10.0,13.0,74,0.00,,,0.01,Wunderground v.1.15,2013-10-08 13:34:00,
2013-10-08 09:36:00,53.4,45.7,30.26,East,80,12.0,15.0,75,0.00,,,0.01,Wunderground v.1.15,2013-10-08 13:36:00,
2013-10-08 09:37:00,53.4,45.3,30.26,NE,48,12.0,18.0,74,0.00,,,0.01,Wunderground v.1.15,2013-10-08 13:37:00,
2013-10-08 09:38:00,53.5,45.8,30.26,East,87,13.0,18.0,75,0.00,,,0.01,Wunderground v.1.15,2013-10-08 13:38:00,
2013-10-08 09:39:00,53.5,45.8,30.26,ENE,74,13.0,18.0,75,0.00,,,0.01,Wunderground v.1.15,2013-10-08 13:39:00,
2013-10-08 09:40:00,53.5,45.8,30.26,NNE,32,13.0,14.0,75,0.00,,,0.01,Wunderground v.1.15,2013-10-08 13:40:00,
2013-10-08 09:41:00,53.6,45.9,30.26,NE,50,13.0,14.0,75,0.00,,,0.01,Wunderground v.1.15,2013-10-08 13:41:00,
2013-10-08 09:42:00,53.7,45.6,30.26,ENE,65,14.0,14.0,74,0.00,,,0.01,Wunderground v.1.15,2013-10-08 13:42:00,
2013-10-08 09:45:00,53.8,46.4,30.26,ENE,73,13.0,14.0,76,0.00,,,0.01,Wunderground v.1.15,2013-10-08 13:45:00,
2013-10-08 09:46:00,53.9,46.2,30.26,East,79,13.0,14.0,75,0.00,,,0.01,Wunderground v.1.15,2013-10-08 13:46:00,
2013-10-08 09:48:00,53.9,46.2,30.26,ESE,110,12.0,14.0,75,0.00,,,0.01,Wunderground v.1.15,2013-10-08 13:48:00,
2013-10-08 09:50:00,54.0,46.6,30.26,ESE,107,11.0,11.0,76,0.00,,,0.01,Wunderground v.1.15,2013-10-08 13:50:00,
2013-10-08 09:53:00,54.1,47.0,30.26,NE,53,10.0,14.0,77,0.00,,,0.01,Wunderground v.1.15,2013-10-08 13:53:00,
2013-10-08 09:54:00,54.2,46.8,30.26,NE,38,10.0,14.0,76,0.00,,,0.01,Wunderground v.1.15,2013-10-08 13:54:00,
2013-10-08 09:56:00,54.2,47.1,30.26,East,86,10.0,18.0,77,0.00,,,0.01,Wunderground v.1.15,2013-10-08 13:56:00,
2013-10-08 10:00:00,54.4,47.0,30.27,ENE,60,10.0,15.0,76,0.00,,,0.01,Wunderground v.1.15,2013-10-08 14:00:00,
2013-10-08 10:01:00,54.4,46.6,30.26,ENE,58,11.0,15.0,75,0.00,,,0.01,Wunderground v.1.15,2013-10-08 14:01:00,
2013-10-08 10:02:00,54.4,47.0,30.27,NE,38,11.0,15.0,76,0.00,,,0.01,Wunderground v.1.15,2013-10-08 14:02:00,
2013-10-08 10:04:00,54.5,47.8,30.26,East,88,11.0,15.0,78,0.00,,,0.01,Wunderground v.1.15,2013-10-08 14:04:00,
2013-10-08 10:09:00,54.8,47.4,30.27,East,89,11.0,22.0,76,0.00,,,0.01,Wunderground v.1.15,2013-10-08 14:09:00,
2013-10-08 10:10:00,54.9,48.2,30.27,ENE,59,11.0,12.0,78,0.00,,,0.01,Wunderground v.1.15,2013-10-08 14:10:00,
2013-10-08 10:11:00,55.0,47.9,30.27,East,86,11.0,12.0,77,0.00,,,0.01,Wunderground v.1.15,2013-10-08 14:11:00,
2013-10-08 10:14:00,55.1,47.7,30.27,ENE,69,12.0,14.0,76,0.00,,,0.01,Wunderground v.1.15,2013-10-08 14:14:00,
2013-10-08 10:15:00,55.1,47.3,30.27,ENE,59,13.0,14.0,75,0.00,,,0.01,Wunderground v.1.15,2013-10-08 14:15:00,
2013-10-08 10:16:00,55.1,47.7,30.27,ENE,61,13.0,14.0,76,0.00,,,0.01,Wunderground v.1.15,2013-10-08 14:16:00,
2013-10-08 10:20:00,55.1,47.0,30.27,ENE,57,13.0,13.0,74,0.00,,,0.01,Wunderground v.1.15,2013-10-08 14:20:00,
2013-10-08 10:21:00,55.1,47.0,30.27,ENE,74,13.0,13.0,74,0.00,,,0.01,Wunderground v.1.15,2013-10-08 14:21:00,
2013-10-08 10:23:00,55.3,47.2,30.27,East,87,12.0,13.0,74,0.00,,,0.01,Wunderground v.1.15,2013-10-08 14:23:00,
2013-10-08 10:24:00,55.3,46.8,30.27,East,94,12.0,13.0,73,0.00,,,0.01,Wunderground v.1.15,2013-10-08 14:24:00,
2013-10-08 10:26:00,55.2,46.3,30.27,ENE,74,12.0,13.0,72,0.00,,,0.01,Wunderground v.1.15,2013-10-08 14:26:00,
2013-10-08 10:28:00,55.3,47.2,30.27,East,84,11.0,13.0,74,0.00,,,0.01,Wunderground v.1.15,2013-10-08 14:28:00,
2013-10-08 10:30:00,55.4,46.5,30.27,East,97,10.0,10.0,72,0.00,,,0.01,Wunderground v.1.15,2013-10-08 14:30:00,
2013-10-08 10:31:00,55.5,46.6,30.27,East,92,10.0,10.0,72,0.00,,,0.01,Wunderground v.1.15,2013-10-08 14:31:00,
2013-10-08 10:33:00,55.6,46.3,30.27,ESE,107,10.0,11.0,71,0.00,,,0.01,Wunderground v.1.15,2013-10-08 14:33:00,
2013-10-08 10:37:00,56.1,47.2,30.27,ENE,74,9.0,11.0,72,0.00,,,0.01,Wunderground v.1.15,2013-10-08 14:37:00,
2013-10-08 10:39:00,56.2,46.2,30.27,ENE,78,9.0,12.0,69,0.00,,,0.01,Wunderground v.1.15,2013-10-08 14:39:00,
2013-10-08 10:41:00,56.3,46.3,30.27,East,80,9.0,11.0,69,0.00,,,0.01,Wunderground v.1.15,2013-10-08 14:41:00,
2013-10-08 10:42:00,56.4,46.0,30.27,NE,51,9.0,11.0,68,0.00,,,0.01,Wunderground v.1.15,2013-10-08 14:42:00,
2013-10-08 10:45:00,56.4,46.0,30.27,NE,36,9.0,13.0,68,0.00,,,0.01,Wunderground v.1.15,2013-10-08 14:45:00,
2013-10-08 10:46:00,56.4,46.0,30.27,NE,38,10.0,13.0,68,0.00,,,0.01,Wunderground v.1.15,2013-10-08 14:46:00,
2013-10-08 10:47:00,56.3,45.5,30.27,ENE,77,10.0,13.0,67,0.00,,,0.01,Wunderground v.1.15,2013-10-08 14:47:00,
2013-10-08 10:51:00,56.2,45.4,30.27,NE,36,11.0,12.0,67,0.00,,,0.01,Wunderground v.1.15,2013-10-08 14:51:00,
2013-10-08 10:52:00,56.2,45.4,30.27,East,84,11.0,12.0,67,0.00,,,0.01,Wunderground v.1.15,2013-10-08 14:52:00,
2013-10-08 10:53:00,56.2,45.8,30.27,ENE,58,11.0,14.0,68,0.00,,,0.01,Wunderground v.1.15,2013-10-08 14:53:00,
2013-10-08 10:56:00,56.1,45.3,30.27,NE,46,12.0,14.0,67,0.00,,,0.01,Wunderground v.1.15,2013-10-08 14:56:00,
2013-10-08 10:58:00,55.9,44.7,30.27,NE,38,13.0,16.0,66,0.00,,,0.01,Wunderground v.1.15,2013-10-08 14:58:00,
2013-10-08 10:59:00,55.8,44.6,30.27,ENE,69,13.0,16.0,66,0.00,,,0.01,Wunderground v.1.15,2013-10-08 14:59:00,
2013-10-08 11:00:00,55.8,45.0,30.27,NNE,19,13.0,13.0,67,0.00,,,0.01,Wunderground v.1.15,2013-10-08 15:00:00,
2013-10-08 11:01:00,55.8,45.0,30.27,ENE,63,12.0,13.0,67,0.00,,,0.01,Wunderground v.1.15,2013-10-08 15:01:00,
2013-10-08 11:02:00,55.9,45.1,30.27,ENE,61,13.0,13.0,67,0.00,,,0.01,Wunderground v.1.15,2013-10-08 15:02:00,
2013-10-08 11:04:00,55.9,44.7,30.27,NE,43,13.0,14.0,66,0.00,,,0.01,Wunderground v.1.15,2013-10-08 15:04:00,
2013-10-08 11:06:00,55.9,45.5,30.27,NNE,24,13.0,14.0,68,0.00,,,0.01,Wunderground v.1.15,2013-10-08 15:06:00,
2013-10-08 11:08:00,55.9,45.1,30.27,ENE,73,12.0,14.0,67,0.00,,,0.01,Wunderground v.1.15,2013-10-08 15:08:00,
2013-10-08 11:11:00,56.0,45.6,30.27,ENE,78,10.0,11.0,68,0.00,,,0.01,Wunderground v.1.15,2013-10-08 15:11:00,
2013-10-08 11:12:00,56.0,45.2,30.27,ENE,61,10.0,11.0,67,0.00,,,0.01,Wunderground v.1.15,2013-10-08 15:12:00,
2013-10-08 11:13:00,56.1,45.3,30.27,NE,41,10.0,11.0,67,0.00,,,0.01,Wunderground v.1.15,2013-10-08 15:13:00,
2013-10-08 11:14:00,56.0,44.8,30.27,East,96,9.0,14.0,66,0.00,,,0.01,Wunderground v.1.15,2013-10-08 15:14:00,
2013-10-08 11:17:00,56.0,45.6,30.27,NE,43,9.0,14.0,68,0.00,,,0.01,Wunderground v.1.15,2013-10-08 15:17:00,
2013-10-08 11:19:00,56.0,44.8,30.27,East,87,9.0,14.0,66,0.00,,,0.01,Wunderground v.1.15,2013-10-08 15:19:00,
2013-10-08 11:20:00,55.9,44.7,30.27,ENE,67,9.0,9.0,66,0.00,,,0.01,Wunderground v.1.15,2013-10-08 15:20:00,
2013-10-08 11:23:00,55.9,45.5,30.27,East,92,10.0,11.0,68,0.00,,,0.01,Wunderground v.1.15,2013-10-08 15:23:00,
2013-10-08 11:24:00,56.1,46.4,30.27,ENE,57,10.0,11.0,70,0.00,,,0.01,Wunderground v.1.15,2013-10-08 15:24:00,
2013-10-08 11:25:00,56.2,45.8,30.27,East,100,9.0,11.0,68,0.00,,,0.01,Wunderground v.1.15,2013-10-08 15:25:00,
2013-10-08 11:26:00,56.4,46.0,30.27,East,88,9.0,11.0,68,0.00,,,0.01,Wunderground v.1.15,2013-10-08 15:26:00,
2013-10-08 11:28:00,56.7,47.0,30.27,East,81,9.0,11.0,70,0.00,,,0.01,Wunderground v.1.15,2013-10-08 15:28:00,
2013-10-08 11:30:00,56.9,46.1,30.27,ENE,67,8.0,9.0,67,0.00,,,0.01,Wunderground v.1.15,2013-10-08 15:30:00,
2013-10-08 11:34:00,57.1,45.4,30.27,ENE,69,9.0,11.0,65,0.00,,,0.01,Wunderground v.1.15,2013-10-08 15:34:00,
2013-10-08 11:35:00,57.1,47.0,30.27,NE,54,9.0,11.0,69,0.00,,,0.01,Wunderground v.1.15,2013-10-08 15:35:00,
2013-10-08 11:36:00,57.2,46.7,30.27,East,100,9.0,14.0,68,0.00,,,0.01,Wunderground v.1.15,2013-10-08 15:36:00,
2013-10-08 11:38:00,57.3,46.4,30.27,ESE,112,10.0,14.0,67,0.00,,,0.01,Wunderground v.1.15,2013-10-08 15:38:00,
2013-10-08 11:39:00,57.5,47.0,30.27,East,83,10.0,21.0,68,0.00,,,0.01,Wunderground v.1.15,2013-10-08 15:39:00,
2013-10-08 11:43:00,57.9,47.0,30.27,ENE,78,11.0,13.0,67,0.00,,,0.01,Wunderground v.1.15,2013-10-08 15:43:00,
2013-10-08 11:44:00,58.0,47.1,30.27,ENE,68,10.0,13.0,67,0.00,,,0.01,Wunderground v.1.15,2013-10-08 15:44:00,
2013-10-08 11:45:00,58.0,46.3,30.27,ENE,69,11.0,13.0,65,0.00,,,0.01,Wunderground v.1.15,2013-10-08 15:45:00,
2013-10-08 11:47:00,58.1,46.4,30.27,ESE,105,12.0,16.0,65,0.00,,,0.01,Wunderground v.1.15,2013-10-08 15:47:00,
2013-10-08 11:49:00,58.2,46.9,30.27,East,95,12.0,18.0,66,0.00,,,0.01,Wunderground v.1.15,2013-10-08 15:49:00,
2013-10-08 11:50:00,58.2,46.1,30.27,East,90,12.0,18.0,64,0.00,,,0.01,Wunderground v.1.15,2013-10-08 15:50:00,
2013-10-08 11:51:00,58.2,46.5,30.27,East,98,12.0,18.0,65,0.00,,,0.01,Wunderground v.1.15,2013-10-08 15:51:00,
2013-10-08 11:52:00,58.2,45.7,30.27,ESE,113,12.0,18.0,63,0.00,,,0.01,Wunderground v.1.15,2013-10-08 15:52:00,
2013-10-08 11:56:00,58.5,47.6,30.27,East,98,12.0,19.0,67,0.00,,,0.01,Wunderground v.1.15,2013-10-08 15:56:00,
2013-10-08 11:57:00,58.4,45.4,30.27,ENE,72,13.0,19.0,62,0.00,,,0.01,Wunderground v.1.15,2013-10-08 15:57:00,
2013-10-08 11:59:00,58.0,45.9,30.27,East,82,13.0,19.0,64,0.00,,,0.01,Wunderground v.1.15,2013-10-08 15:59:00,
2013-10-08 12:00:00,58.0,46.3,30.27,NE,52,12.0,12.0,65,0.00,,,0.01,Wunderground v.1.15,2013-10-08 16:00:00,
2013-10-08 12:02:00,58.0,46.3,30.27,SE,133,12.0,18.0,65,0.00,,,0.01,Wunderground v.1.15,2013-10-08 16:02:00,
2013-10-08 12:04:00,58.0,46.3,30.27,ESE,113,12.0,18.0,65,0.00,,,0.01,Wunderground v.1.15,2013-10-08 16:04:00,
2013-10-08 12:06:00,57.9,46.2,30.27,SE,126,13.0,18.0,65,0.00,,,0.01,Wunderground v.1.15,2013-10-08 16:06:00,
2013-10-08 12:07:00,58.0,47.1,30.27,East,87,12.0,18.0,67,0.00,,,0.01,Wunderground v.1.15,2013-10-08 16:07:00,
2013-10-08 12:08:00,58.0,47.1,30.27,ESE,119,11.0,18.0,67,0.00,,,0.01,Wunderground v.1.15,2013-10-08 16:08:00,
2013-10-08 12:09:00,58.0,45.9,30.27,East,86,11.0,18.0,64,0.00,,,0.01,Wunderground v.1.15,2013-10-08 16:09:00,
2013-10-08 12:13:00,57.4,45.7,30.27,East,94,12.0,15.0,65,0.00,,,0.01,Wunderground v.1.15,2013-10-08 16:13:00,
2013-10-08 12:14:00,57.3,45.6,30.27,SE,125,13.0,15.0,65,0.00,,,0.01,Wunderground v.1.15,2013-10-08 16:14:00,
2013-10-08 12:16:00,57.3,46.4,30.27,East,88,12.0,15.0,67,0.00,,,0.01,Wunderground v.1.15,2013-10-08 16:16:00,
2013-10-08 12:17:00,57.3,46.4,30.27,NE,56,12.0,15.0,67,0.00,,,0.01,Wunderground v.1.15,2013-10-08 16:17:00,
2013-10-08 12:20:00,57.3,45.6,30.27,East,80,12.0,12.0,65,0.00,,,0.01,Wunderground v.1.15,2013-10-08 16:20:00,
2013-10-08 12:22:00,57.3,46.0,30.27,ENE,73,11.0,12.0,66,0.00,,,0.01,Wunderground v.1.15,2013-10-08 16:22:00,
2013-10-08 12:23:00,57.3,46.0,30.27,ENE,63,11.0,12.0,66,0.00,,,0.01,Wunderground v.1.15,2013-10-08 16:23:00,
2013-10-08 12:24:00,57.4,46.1,30.27,East,100,10.0,12.0,66,0.00,,,0.01,Wunderground v.1.15,2013-10-08 16:24:00,
2013-10-08 12:25:00,57.4,46.1,30.27,East,87,10.0,12.0,66,0.00,,,0.01,Wunderground v.1.15,2013-10-08 16:25:00,
2013-10-08 12:27:00,57.4,46.1,30.27,East,84,10.0,13.0,66,0.00,,,0.01,Wunderground v.1.15,2013-10-08 16:27:00,
2013-10-08 12:31:00,57.3,45.6,30.27,East,95,10.0,10.0,65,0.00,,,0.01,Wunderground v.1.15,2013-10-08 16:31:00,
2013-10-08 12:32:00,57.4,46.1,30.27,NE,49,10.0,10.0,66,0.00,,,0.01,Wunderground v.1.15,2013-10-08 16:32:00,
2013-10-08 12:33:00,57.4,45.7,30.27,ENE,74,10.0,12.0,65,0.00,,,0.01,Wunderground v.1.15,2013-10-08 16:33:00,
2013-10-08 12:34:00,57.4,45.7,30.27,East,94,10.0,12.0,65,0.00,,,0.01,Wunderground v.1.15,2013-10-08 16:34:00,
2013-10-08 12:37:00,57.5,47.0,30.27,NE,46,9.0,12.0,68,0.00,,,0.01,Wunderground v.1.15,2013-10-08 16:37:00,
2013-10-08 12:39:00,57.6,45.9,30.27,NE,41,9.0,12.0,65,0.00,,,0.01,Wunderground v.1.15,2013-10-08 16:39:00,
2013-10-08 12:40:00,57.5,45.8,30.27,NNE,31,9.0,9.0,65,0.00,,,0.01,Wunderground v.1.15,2013-10-08 16:40:00,
2013-10-08 12:41:00,57.5,46.2,30.27,ENE,77,9.0,9.0,66,0.00,,,0.01,Wunderground v.1.15,2013-10-08 16:41:00,
2013-10-08 12:42:00,57.5,46.2,30.27,ENE,65,9.0,10.0,66,0.00,,,0.01,Wunderground v.1.15,2013-10-08 16:42:00,
2013-10-08 12:47:00,57.5,45.8,30.26,ENE,71,9.0,10.0,65,0.00,,,0.01,Wunderground v.1.15,2013-10-08 16:47:00,
2013-10-08 12:48:00,57.5,46.2,30.26,NE,55,9.0,10.0,66,0.00,,,0.01,Wunderground v.1.15,2013-10-08 16:48:00,
2013-10-08 12:49:00,57.5,46.6,30.26,East,98,8.0,10.0,67,0.00,,,0.01,Wunderground v.1.15,2013-10-08 16:49:00,
2013-10-08 12:51:00,57.9,47.0,30.26,NE,40,8.0,8.0,67,0.00,,,0.01,Wunderground v.1.15,2013-10-08 16:51:00,
2013-10-08 12:53:00,58.3,47.4,30.26,ENE,65,8.0,8.0,67,0.00,,,0.01,Wunderground v.1.15,2013-10-08 16:53:00,
2013-10-08 12:56:00,58.6,47.7,30.26,NE,51,7.0,10.0,67,0.00,,,0.01,Wunderground v.1.15,2013-10-08 16:56:00,
2013-10-08 12:58:00,58.7,47.0,30.26,East,98,7.0,10.0,65,0.00,,,0.01,Wunderground v.1.15,2013-10-08 16:58:00,
2013-10-08 12:59:00,58.7,47.4,30.26,East,83,8.0,10.0,66,0.00,,,0.01,Wunderground v.1.15,2013-10-08 16:59:00,
2013-10-08 13:01:00,58.8,47.5,30.26,ENE,65,9.0,11.0,66,0.00,,,0.01,Wunderground v.1.15,2013-10-08 17:01:00,
2013-10-08 13:03:00,58.9,46.7,30.26,ENE,58,9.0,11.0,64,0.00,,,0.01,Wunderground v.1.15,2013-10-08 17:03:00,
2013-10-08 13:05:00,59.0,47.7,30.26,NNE,28,9.0,11.0,66,0.00,,,0.01,Wunderground v.1.15,2013-10-08 17:05:00,
2013-10-08 13:08:00,59.4,46.8,30.26,ENE,67,9.0,11.0,63,0.00,,,0.01,Wunderground v.1.15,2013-10-08 17:08:00,
2013-10-08 13:09:00,59.4,46.8,30.26,NNE,27,9.0,11.0,63,0.00,,,0.01,Wunderground v.1.15,2013-10-08 17:09:00,
2013-10-08 13:10:00,59.3,47.1,30.26,NE,53,8.0,8.0,64,0.00,,,0.01,Wunderground v.1.15,2013-10-08 17:10:00,
2013-10-08 13:11:00,59.2,46.2,30.25,NE,48,8.0,8.0,62,0.00,,,0.01,Wunderground v.1.15,2013-10-08 17:11:00,
2013-10-08 13:13:00,59.3,47.9,30.25,ENE,61,7.0,12.0,66,0.00,,,0.01,Wunderground v.1.15,2013-10-08 17:13:00,
2013-10-08 13:14:00,59.5,48.1,30.25,ENE,71,8.0,12.0,66,0.00,,,0.01,Wunderground v.1.15,2013-10-08 17:14:00,
2013-10-08 13:15:00,59.6,47.8,30.25,NE,48,8.0,12.0,65,0.00,,,0.01,Wunderground v.1.15,2013-10-08 17:15:00,
2013-10-08 13:19:00,59.5,46.9,30.25,East,82,8.0,12.0,63,0.00,,,0.01,Wunderground v.1.15,2013-10-08 17:19:00,
2013-10-08 13:21:00,59.3,48.3,30.25,ENE,74,8.0,9.0,67,0.00,,,0.01,Wunderground v.1.15,2013-10-08 17:21:00,
2013-10-08 13:22:00,59.3,47.1,30.25,ENE,67,9.0,10.0,64,0.00,,,0.01,Wunderground v.1.15,2013-10-08 17:22:00,
2013-10-08 13:23:00,59.3,47.1,30.25,ENE,67,9.0,10.0,64,0.00,,,0.01,Wunderground v.1.15,2013-10-08 17:23:00,
2013-10-08 13:25:00,59.3,47.9,30.25,East,93,8.0,13.0,66,0.00,,,0.01,Wunderground v.1.15,2013-10-08 17:25:00,
2013-10-08 13:28:00,59.1,47.7,30.25,ENE,76,9.0,13.0,66,0.00,,,0.01,Wunderground v.1.15,2013-10-08 17:28:00,
2013-10-08 13:30:00,59.1,48.1,30.25,ENE,65,9.0,9.0,67,0.00,,,0.01,Wunderground v.1.15,2013-10-08 17:30:00,
2013-10-08 13:31:00,59.1,48.1,30.25,ENE,70,8.0,10.0,67,0.00,,,0.01,Wunderground v.1.15,2013-10-08 17:31:00,
2013-10-08 13:32:00,59.1,47.3,30.25,ENE,57,8.0,10.0,65,0.00,,,0.01,Wunderground v.1.15,2013-10-08 17:32:00,
2013-10-08 13:33:00,59.0,47.2,30.25,NE,39,8.0,10.0,65,0.00,,,0.01,Wunderground v.1.15,2013-10-08 17:33:00,
2013-10-08 13:35:00,59.1,47.7,30.25,ESE,106,8.0,10.0,66,0.00,,,0.01,Wunderground v.1.15,2013-10-08 17:35:00,
2013-10-08 13:39:00,59.2,48.6,30.25,ESE,105,6.0,10.0,68,0.00,,,0.01,Wunderground v.1.15,2013-10-08 17:39:00,
2013-10-08 13:41:00,59.6,48.6,30.24,ESE,109,5.0,6.0,67,0.00,,,0.01,Wunderground v.1.15,2013-10-08 17:41:00,
2013-10-08 13:44:00,60.1,48.7,30.24,East,82,5.0,8.0,66,0.00,,,0.01,Wunderground v.1.15,2013-10-08 17:44:00,
2013-10-08 13:45:00,60.2,48.4,30.24,NE,55,5.0,8.0,65,0.00,,,0.01,Wunderground v.1.15,2013-10-08 17:45:00,
2013-10-08 13:47:00,60.7,49.3,30.24,East,94,4.0,8.0,66,0.00,,,0.01,Wunderground v.1.15,2013-10-08 17:47:00,
2013-10-08 13:48:00,60.8,49.4,30.24,ESE,117,5.0,8.0,66,0.00,,,0.01,Wunderground v.1.15,2013-10-08 17:48:00,
2013-10-08 13:49:00,60.9,49.5,30.24,East,80,5.0,8.0,66,0.00,,,0.01,Wunderground v.1.15,2013-10-08 17:49:00,
2013-10-08 13:50:00,61.0,50.0,30.24,NE,53,6.0,8.0,67,0.00,,,0.01,Wunderground v.1.15,2013-10-08 17:50:00,
2013-10-08 13:54:00,61.0,48.7,30.24,ESE,110,7.0,11.0,64,0.00,,,0.01,Wunderground v.1.15,2013-10-08 17:54:00,
2013-10-08 13:55:00,60.9,48.6,30.24,East,92,8.0,11.0,64,0.00,,,0.01,Wunderground v.1.15,2013-10-08 17:55:00,
2013-10-08 13:58:00,61.0,48.7,30.24,East,91,9.0,11.0,64,0.00,,,0.01,Wunderground v.1.15,2013-10-08 17:58:00,
2013-10-08 14:00:00,61.1,49.7,30.24,NE,44,9.0,9.0,66,0.00,,,0.01,Wunderground v.1.15,2013-10-08 18:00:00,
2013-10-08 14:02:00,61.2,49.3,30.23,ENE,76,9.0,9.0,65,0.00,,,0.01,Wunderground v.1.15,2013-10-08 18:02:00,
2013-10-08 14:03:00,61.3,50.2,30.23,ENE,72,9.0,9.0,67,0.00,,,0.01,Wunderground v.1.15,2013-10-08 18:03:00,
2013-10-08 14:07:00,61.5,49.2,30.23,East,92,9.0,12.0,64,0.00,,,0.01,Wunderground v.1.15,2013-10-08 18:07:00,
2013-10-08 14:08:00,61.4,48.7,30.23,NE,55,9.0,12.0,63,0.00,,,0.01,Wunderground v.1.15,2013-10-08 18:08:00,
2013-10-08 14:10:00,61.4,49.1,30.23,ENE,73,9.0,11.0,64,0.00,,,0.01,Wunderground v.1.15,2013-10-08 18:10:00,
2013-10-08 14:11:00,61.3,49.0,30.23,East,97,9.0,13.0,64,0.00,,,0.01,Wunderground v.1.15,2013-10-08 18:11:00,
2013-10-08 14:13:00,61.2,49.3,30.23,ESE,107,10.0,13.0,65,0.00,,,0.01,Wunderground v.1.15,2013-10-08 18:13:00,
2013-10-08 14:16:00,61.4,49.9,30.23,ENE,69,10.0,13.0,66,0.00,,,0.01,Wunderground v.1.15,2013-10-08 18:16:00,
2013-10-08 14:17:00,61.5,49.6,30.23,ENE,71,10.0,13.0,65,0.00,,,0.01,Wunderground v.1.15,2013-10-08 18:17:00,
2013-10-08 14:18:00,61.5,50.0,30.23,ENE,69,10.0,13.0,66,0.00,,,0.01,Wunderground v.1.15,2013-10-08 18:18:00,
2013-10-08 14:22:00,61.5,49.6,30.23,East,98,9.0,9.0,65,0.00,,,0.01,Wunderground v.1.15,2013-10-08 18:22:00,
2013-10-08 14:23:00,61.5,49.6,30.23,East,81,9.0,10.0,65,0.00,,,0.01,Wunderground v.1.15,2013-10-08 18:23:00,
2013-10-08 14:24:00,61.5,50.0,30.23,ESE,105,9.0,10.0,66,0.00,,,0.01,Wunderground v.1.15,2013-10-08 18:24:00,
2013-10-08 14:25:00,61.5,49.6,30.23,East,91,8.0,10.0,65,0.00,,,0.01,Wunderground v.1.15,2013-10-08 18:25:00,
2013-10-08 14:26:00,61.6,50.1,30.23,NE,54,8.0,10.0,66,0.00,,,0.01,Wunderground v.1.15,2013-10-08 18:26:00,
2013-10-08 14:30:00,62.0,49.7,30.23,ENE,57,8.0,9.0,64,0.00,,,0.01,Wunderground v.1.15,2013-10-08 18:30:00,
2013-10-08 14:31:00,62.1,49.8,30.23,NE,45,8.0,9.0,64,0.00,,,0.01,Wunderground v.1.15,2013-10-08 18:31:00,
2013-10-08 14:35:00,62.0,49.7,30.23,NNE,32,8.0,12.0,64,0.00,,,0.01,Wunderground v.1.15,2013-10-08 18:35:00,
2013-10-08 14:37:00,62.0,49.7,30.23,NE,49,8.0,13.0,64,0.00,,,0.01,Wunderground v.1.15,2013-10-08 18:37:00,
2013-10-08 14:39:00,62.0,48.8,30.23,ESE,104,9.0,13.0,62,0.00,,,0.01,Wunderground v.1.15,2013-10-08 18:39:00,
2013-10-08 14:40:00,61.9,49.2,30.23,East,92,9.0,10.0,63,0.00,,,0.01,Wunderground v.1.15,2013-10-08 18:40:00,
2013-10-08 14:41:00,61.9,50.0,30.23,East,94,9.0,10.0,65,0.00,,,0.01,Wunderground v.1.15,2013-10-08 18:41:00,
2013-10-08 14:45:00,62.0,49.3,30.23,ENE,65,9.0,10.0,63,0.00,,,0.01,Wunderground v.1.15,2013-10-08 18:45:00,
2013-10-08 14:46:00,62.0,50.1,30.23,NE,38,10.0,10.0,65,0.00,,,0.01,Wunderground v.1.15,2013-10-08 18:46:00,
2013-10-08 14:48:00,62.1,49.4,30.23,NE,55,9.0,10.0,63,0.00,,,0.01,Wunderground v.1.15,2013-10-08 18:48:00,
2013-10-08 14:50:00,62.3,50.0,30.23,East,79,8.0,8.0,64,0.00,,,0.01,Wunderground v.1.15,2013-10-08 18:50:00,
2013-10-08 14:51:00,62.4,50.5,30.23,ENE,64,8.0,11.0,65,0.00,,,0.01,Wunderground v.1.15,2013-10-08 18:51:00,
2013-10-08 14:52:00,62.4,50.1,30.23,East,98,8.0,11.0,64,0.00,,,0.01,Wunderground v.1.15,2013-10-08 18:52:00,
2013-10-08 14:54:00,62.3,49.1,30.23,SE,128,8.0,13.0,62,0.00,,,0.01,Wunderground v.1.15,2013-10-08 18:54:00,
2013-10-08 14:55:00,62.2,49.4,30.23,East,97,8.0,13.0,63,0.00,,,0.01,Wunderground v.1.15,2013-10-08 18:55:00,
2013-10-08 14:56:00,62.1,49.8,30.23,ENE,78,9.0,13.0,64,0.00,,,0.01,Wunderground v.1.15,2013-10-08 18:56:00,
2013-10-08 14:59:00,61.8,49.5,30.23,ESE,105,9.0,13.0,64,0.00,,,0.01,Wunderground v.1.15,2013-10-08 18:59:00,
2013-10-08 15:00:00,61.8,50.3,30.23,East,84,9.0,10.0,66,0.00,,,0.01,Wunderground v.1.15,2013-10-08 19:00:00,
2013-10-08 15:01:00,61.8,49.5,30.23,ESE,102,10.0,10.0,64,0.00,,,0.01,Wunderground v.1.15,2013-10-08 19:01:00,
2013-10-08 15:03:00,61.9,49.2,30.23,ENE,65,9.0,10.0,63,0.00,,,0.01,Wunderground v.1.15,2013-10-08 19:03:00,
2013-10-08 15:07:00,62.1,50.2,30.23,East,101,9.0,10.0,65,0.00,,,0.01,Wunderground v.1.15,2013-10-08 19:07:00,
2013-10-08 15:08:00,62.0,49.3,30.23,East,101,9.0,10.0,63,0.00,,,0.01,Wunderground v.1.15,2013-10-08 19:08:00,
2013-10-08 15:10:00,62.1,49.8,30.23,ENE,78,9.0,9.0,64,0.00,,,0.01,Wunderground v.1.15,2013-10-08 19:10:00,
2013-10-08 15:11:00,62.1,49.8,30.23,NE,46,8.0,9.0,64,0.00,,,0.01,Wunderground v.1.15,2013-10-08 19:11:00,
2013-10-08 15:12:00,62.2,50.3,30.23,East,98,8.0,9.0,65,0.00,,,0.01,Wunderground v.1.15,2013-10-08 19:12:00,
2013-10-08 15:13:00,62.2,49.4,30.23,East,101,9.0,9.0,63,0.00,,,0.01,Wunderground v.1.15,2013-10-08 19:13:00,
2013-10-08 15:15:00,62.2,49.9,30.23,NE,36,8.0,10.0,64,0.00,,,0.01,Wunderground v.1.15,2013-10-08 19:15:00,
2013-10-08 15:16:00,62.2,49.4,30.23,ENE,71,8.0,10.0,63,0.00,,,0.01,Wunderground v.1.15,2013-10-08 19:16:00,
2013-10-08 15:20:00,62.5,49.7,30.23,NE,36,8.0,8.0,63,0.00,,,0.01,Wunderground v.1.15,2013-10-08 19:20:00,
2013-10-08 15:21:00,62.5,49.7,30.23,NE,44,8.0,8.0,63,0.00,,,0.01,Wunderground v.1.15,2013-10-08 19:21:00,
2013-10-08 15:24:00,62.5,50.2,30.23,NNE,32,8.0,12.0,64,0.00,,,0.01,Wunderground v.1.15,2013-10-08 19:24:00,
2013-10-08 15:25:00,62.5,49.3,30.23,ENE,67,9.0,12.0,62,0.00,,,0.01,Wunderground v.1.15,2013-10-08 19:25:00,
2013-10-08 15:26:00,62.4,49.6,30.23,NE,35,9.0,12.0,63,0.00,,,0.01,Wunderground v.1.15,2013-10-08 19:26:00,
2013-10-08 15:27:00,62.4,49.6,30.23,NE,49,9.0,12.0,63,0.00,,,0.01,Wunderground v.1.15,2013-10-08 19:27:00,
2013-10-08 15:28:00,62.4,50.1,30.23,ENE,69,9.0,12.0,64,0.00,,,0.01,Wunderground v.1.15,2013-10-08 19:28:00,
2013-10-08 15:32:00,62.2,49.9,30.23,ENE,57,8.0,9.0,64,0.00,,,0.01,Wunderground v.1.15,2013-10-08 19:32:00,
2013-10-08 15:33:00,62.3,50.4,30.23,ESE,106,8.0,9.0,65,0.00,,,0.01,Wunderground v.1.15,2013-10-08 19:33:00,
2013-10-08 15:34:00,62.4,50.5,30.23,ESE,110,8.0,9.0,65,0.00,,,0.01,Wunderground v.1.15,2013-10-08 19:34:00,
2013-10-08 15:35:00,62.5,50.6,30.23,East,88,8.0,11.0,65,0.00,,,0.01,Wunderground v.1.15,2013-10-08 19:35:00,
2013-10-08 15:38:00,62.4,49.2,30.23,ENE,62,8.0,13.0,62,0.00,,,0.01,Wunderground v.1.15,2013-10-08 19:38:00,
2013-10-08 15:39:00,62.4,49.6,30.23,ENE,71,8.0,13.0,63,0.00,,,0.01,Wunderground v.1.15,2013-10-08 19:39:00,
2013-10-08 15:40:00,62.4,49.2,30.23,ENE,67,8.0,9.0,62,0.00,,,0.01,Wunderground v.1.15,2013-10-08 19:40:00,
2013-10-08 15:41:00,62.3,49.1,30.23,ENE,66,9.0,16.0,62,0.00,,,0.01,Wunderground v.1.15,2013-10-08 19:41:00,
2013-10-08 15:43:00,62.2,49.0,30.23,ENE,58,10.0,16.0,62,0.00,,,0.01,Wunderground v.1.15,2013-10-08 19:43:00,
2013-10-08 15:45:00,62.1,50.2,30.23,NE,53,10.0,16.0,65,0.00,,,0.01,Wunderground v.1.15,2013-10-08 19:45:00,
2013-10-08 15:46:00,62.2,49.9,30.23,ENE,63,11.0,16.0,64,0.00,,,0.01,Wunderground v.1.15,2013-10-08 19:46:00,
2013-10-08 15:49:00,62.1,49.8,30.23,ENE,57,11.0,16.0,64,0.00,,,0.01,Wunderground v.1.15,2013-10-08 19:49:00,
2013-10-08 15:50:00,62.2,49.9,30.23,East,79,10.0,11.0,64,0.00,,,0.01,Wunderground v.1.15,2013-10-08 19:50:00,
2013-10-08 15:51:00,62.2,49.4,30.23,East,84,10.0,11.0,63,0.00,,,0.01,Wunderground v.1.15,2013-10-08 19:51:00,
2013-10-08 15:52:00,62.3,49.5,30.23,ENE,61,10.0,12.0,63,0.00,,,0.01,Wunderground v.1.15,2013-10-08 19:52:00,
2013-10-08 15:56:00,62.4,50.9,30.23,NE,42,9.0,12.0,66,0.00,,,0.01,Wunderground v.1.15,2013-10-08 19:56:00,
2013-10-08 15:57:00,62.5,50.2,30.23,NE,55,9.0,12.0,64,0.00,,,0.01,Wunderground v.1.15,2013-10-08 19:57:00,
2013-10-08 15:58:00,62.5,50.2,30.23,East,86,9.0,15.0,64,0.00,,,0.01,Wunderground v.1.15,2013-10-08 19:58:00,
2013-10-08 15:59:00,62.5,50.2,30.23,NE,51,9.0,15.0,64,0.00,,,0.01,Wunderground v.1.15,2013-10-08 19:59:00,
2013-10-08 16:02:00,62.4,50.1,30.23,ESE,105,9.0,10.0,64,0.00,,,0.01,Wunderground v.1.15,2013-10-08 20:02:00,
2013-10-08 16:03:00,62.4,50.1,30.23,East,84,9.0,10.0,64,0.00,,,0.01,Wunderground v.1.15,2013-10-08 20:03:00,
2013-10-08 16:04:00,62.3,50.4,30.23,ESE,105,9.0,10.0,65,0.00,,,0.01,Wunderground v.1.15,2013-10-08 20:04:00,
2013-10-08 16:05:00,62.3,50.4,30.23,East,81,9.0,14.0,65,0.00,,,0.01,Wunderground v.1.15,2013-10-08 20:05:00,
2013-10-08 16:06:00,62.2,50.3,30.23,East,86,10.0,14.0,65,0.00,,,0.01,Wunderground v.1.15,2013-10-08 20:06:00,
2013-10-08 16:09:00,62.1,50.6,30.23,ENE,68,10.0,14.0,66,0.00,,,0.01,Wunderground v.1.15,2013-10-08 20:09:00,
2013-10-08 16:10:00,62.1,51.0,30.23,East,86,10.0,10.0,67,0.00,,,0.01,Wunderground v.1.15,2013-10-08 20:10:00,
2013-10-08 16:11:00,62.1,50.6,30.23,ENE,62,10.0,10.0,66,0.00,,,0.01,Wunderground v.1.15,2013-10-08 20:11:00,
2013-10-08 16:12:00,62.2,51.1,30.23,ENE,69,10.0,10.0,67,0.00,,,0.01,Wunderground v.1.15,2013-10-08 20:12:00,
2013-10-08 16:14:00,62.2,50.3,30.24,East,98,9.0,10.0,65,0.00,,,0.01,Wunderground v.1.15,2013-10-08 20:14:00,
2013-10-08 16:15:00,62.2,50.3,30.24,East,99,9.0,10.0,65,0.00,,,0.01,Wunderground v.1.15,2013-10-08 20:15:00,
2013-10-08 16:19:00,62.0,50.5,30.24,East,96,9.0,10.0,66,0.00,,,0.01,Wunderground v.1.15,2013-10-08 20:19:00,
2013-10-08 16:20:00,62.0,50.5,30.24,ESE,114,9.0,9.0,66,0.00,,,0.01,Wunderground v.1.15,2013-10-08 20:20:00,
2013-10-08 16:21:00,62.0,50.9,30.24,East,94,8.0,9.0,67,0.00,,,0.01,Wunderground v.1.15,2013-10-08 20:21:00,
2013-10-08 16:25:00,62.1,50.6,30.24,ESE,115,8.0,9.0,66,0.00,,,0.01,Wunderground v.1.15,2013-10-08 20:25:00,
2013-10-08 16:26:00,62.1,50.6,30.24,NE,50,8.0,12.0,66,0.00,,,0.01,Wunderground v.1.15,2013-10-08 20:26:00,
2013-10-08 16:27:00,62.0,50.1,30.24,NE,42,8.0,12.0,65,0.00,,,0.01,Wunderground v.1.15,2013-10-08 20:27:00,
2013-10-08 16:28:00,62.1,50.2,30.24,NE,53,8.0,12.0,65,0.00,,,0.01,Wunderground v.1.15,2013-10-08 20:28:00,
2013-10-08 16:29:00,62.1,50.6,30.24,ENE,61,9.0,12.0,66,0.00,,,0.01,Wunderground v.1.15,2013-10-08 20:29:00,
2013-10-08 16:31:00,62.0,50.1,30.24,East,87,9.0,9.0,65,0.00,,,0.01,Wunderground v.1.15,2013-10-08 20:31:00,
2013-10-08 16:32:00,62.1,50.6,30.24,East,98,9.0,9.0,66,0.00,,,0.01,Wunderground v.1.15,2013-10-08 20:32:00,
2013-10-08 16:33:00,62.1,50.6,30.24,East,92,9.0,9.0,66,0.00,,,0.01,Wunderground v.1.15,2013-10-08 20:33:00,
2013-10-08 16:34:00,62.0,50.1,30.24,NE,55,9.0,10.0,65,0.00,,,0.01,Wunderground v.1.15,2013-10-08 20:34:00,
2013-10-08 16:36:00,62.0,50.1,30.24,NE,53,9.0,13.0,65,0.00,,,0.01,Wunderground v.1.15,2013-10-08 20:36:00,
2013-10-08 16:38:00,61.9,49.6,30.24,NNE,32,9.0,13.0,64,0.00,,,0.01,Wunderground v.1.15,2013-10-08 20:38:00,
2013-10-08 16:39:00,61.9,50.0,30.24,ENE,73,9.0,13.0,65,0.00,,,0.01,Wunderground v.1.15,2013-10-08 20:39:00,
2013-10-08 16:42:00,61.7,50.2,30.24,NE,51,9.0,10.0,66,0.00,,,0.01,Wunderground v.1.15,2013-10-08 20:42:00,
2013-10-08 16:43:00,61.8,50.3,30.24,ENE,68,9.0,10.0,66,0.00,,,0.01,Wunderground v.1.15,2013-10-08 20:43:00,
2013-10-08 16:44:00,61.7,49.8,30.24,ENE,66,10.0,11.0,65,0.00,,,0.01,Wunderground v.1.15,2013-10-08 20:44:00,
2013-10-08 16:46:00,61.7,50.2,30.24,ENE,60,10.0,13.0,66,0.00,,,0.01,Wunderground v.1.15,2013-10-08 20:46:00,
2013-10-08 16:47:00,61.7,49.8,30.24,ENE,61,9.0,13.0,65,0.00,,,0.01,Wunderground v.1.15,2013-10-08 20:47:00,
2013-10-08 16:50:00,61.6,50.1,30.24,ESE,105,10.0,12.0,66,0.00,,,0.01,Wunderground v.1.15,2013-10-08 20:50:00,
2013-10-08 16:51:00,61.6,50.1,30.24,ENE,59,10.0,13.0,66,0.00,,,0.01,Wunderground v.1.15,2013-10-08 20:51:00,
2013-10-08 16:52:00,61.6,50.1,30.24,East,85,10.0,13.0,66,0.00,,,0.01,Wunderground v.1.15,2013-10-08 20:52:00,
2013-10-08 16:55:00,61.6,50.5,30.24,East,95,10.0,13.0,67,0.00,,,0.01,Wunderground v.1.15,2013-10-08 20:55:00,
2013-10-08 16:57:00,61.6,50.1,30.24,ESE,107,11.0,13.0,66,0.00,,,0.01,Wunderground v.1.15,2013-10-08 20:57:00,
2013-10-08 16:58:00,61.6,50.1,30.24,East,86,10.0,13.0,66,0.00,,,0.01,Wunderground v.1.15,2013-10-08 20:58:00,
2013-10-08 16:59:00,61.6,49.7,30.24,East,82,10.0,13.0,65,0.00,,,0.01,Wunderground v.1.15,2013-10-08 20:59:00,
2013-10-08 17:01:00,61.6,50.1,30.24,ESE,119,10.0,10.0,66,0.00,,,0.01,Wunderground v.1.15,2013-10-08 21:01:00,
2013-10-08 17:02:00,61.6,50.5,30.24,NNE,28,9.0,10.0,67,0.00,,,0.01,Wunderground v.1.15,2013-10-08 21:02:00,
2013-10-08 17:05:00,61.8,49.9,30.24,ENE,67,9.0,15.0,65,0.00,,,0.01,Wunderground v.1.15,2013-10-08 21:05:00,
2013-10-08 17:06:00,61.7,50.2,30.24,ENE,61,9.0,15.0,66,0.00,,,0.01,Wunderground v.1.15,2013-10-08 21:06:00,
2013-10-08 17:08:00,61.8,50.3,30.24,ENE,61,9.0,15.0,66,0.00,,,0.01,Wunderground v.1.15,2013-10-08 21:08:00,
2013-10-08 17:10:00,61.8,50.3,30.24,ENE,78,9.0,11.0,66,0.00,,,0.01,Wunderground v.1.15,2013-10-08 21:10:00,
2013-10-08 17:11:00,61.8,49.9,30.24,ENE,63,9.0,11.0,65,0.00,,,0.01,Wunderground v.1.15,2013-10-08 21:11:00,
2013-10-08 17:13:00,61.7,49.4,30.24,East,88,10.0,12.0,64,0.00,,,0.01,Wunderground v.1.15,2013-10-08 21:13:00,
2013-10-08 17:14:00,61.6,50.1,30.24,ENE,61,10.0,12.0,66,0.00,,,0.01,Wunderground v.1.15,2013-10-08 21:14:00,
2013-10-08 17:16:00,61.5,50.0,30.24,East,101,9.0,12.0,66,0.00,,,0.01,Wunderground v.1.15,2013-10-08 21:16:00,
2013-10-08 17:18:00,61.5,50.0,30.24,NE,51,9.0,12.0,66,0.00,,,0.01,Wunderground v.1.15,2013-10-08 21:18:00,
2013-10-08 17:19:00,61.5,49.6,30.24,East,79,9.0,12.0,65,0.00,,,0.01,Wunderground v.1.15,2013-10-08 21:19:00,
2013-10-08 17:20:00,61.4,49.5,30.24,ENE,78,9.0,9.0,65,0.00,,,0.01,Wunderground v.1.15,2013-10-08 21:20:00,
2013-10-08 17:21:00,61.4,49.9,30.24,NE,48,9.0,9.0,66,0.00,,,0.01,Wunderground v.1.15,2013-10-08 21:21:00,
2013-10-08 17:22:00,61.4,50.3,30.24,ENE,71,9.0,11.0,67,0.00,,,0.01,Wunderground v.1.15,2013-10-08 21:22:00,
2013-10-08 17:25:00,61.3,50.2,30.24,ENE,77,9.0,14.0,67,0.00,,,0.01,Wunderground v.1.15,2013-10-08 21:25:00,
2013-10-08 17:26:00,61.3,49.8,30.24,East,94,9.0,14.0,66,0.00,,,0.01,Wunderground v.1.15,2013-10-08 21:26:00,
2013-10-08 17:27:00,61.2,49.7,30.24,ESE,115,10.0,14.0,66,0.00,,,0.01,Wunderground v.1.15,2013-10-08 21:27:00,
2013-10-08 17:28:00,61.2,49.7,30.24,NE,43,10.0,14.0,66,0.00,,,0.01,Wunderground v.1.15,2013-10-08 21:28:00,
2013-10-08 17:29:00,61.1,50.5,30.24,East,93,10.0,14.0,68,0.00,,,0.01,Wunderground v.1.15,2013-10-08 21:29:00,
2013-10-08 17:30:00,61.2,50.6,30.24,East,84,10.0,12.0,68,0.00,,,0.01,Wunderground v.1.15,2013-10-08 21:30:00,
2013-10-08 17:33:00,61.1,50.1,30.25,ENE,69,9.0,12.0,67,0.00,,,0.01,Wunderground v.1.15,2013-10-08 21:33:00,
2013-10-08 17:34:00,61.2,50.2,30.25,East,85,9.0,12.0,67,0.00,,,0.01,Wunderground v.1.15,2013-10-08 21:34:00,
2013-10-08 17:35:00,61.2,50.6,30.25,ENE,66,9.0,12.0,68,0.00,,,0.01,Wunderground v.1.15,2013-10-08 21:35:00,
2013-10-08 17:39:00,61.2,50.6,30.25,ENE,70,8.0,12.0,68,0.00,,,0.01,Wunderground v.1.15,2013-10-08 21:39:00,
2013-10-08 17:40:00,61.2,50.2,30.25,East,99,8.0,11.0,67,0.00,,,0.01,Wunderground v.1.15,2013-10-08 21:40:00,
2013-10-08 17:41:00,61.1,50.1,30.25,East,80,8.0,11.0,67,0.00,,,0.01,Wunderground v.1.15,2013-10-08 21:41:00,
2013-10-08 17:44:00,61.0,50.4,30.25,East,91,8.0,11.0,68,0.00,,,0.01,Wunderground v.1.15,2013-10-08 21:44:00,
2013-10-08 17:46:00,60.9,50.3,30.25,ESE,117,8.0,11.0,68,0.00,,,0.01,Wunderground v.1.15,2013-10-08 21:46:00,
2013-10-08 17:47:00,60.9,50.3,30.25,East,88,9.0,11.0,68,0.00,,,0.01,Wunderground v.1.15,2013-10-08 21:47:00,
2013-10-08 17:49:00,60.8,50.2,30.25,ENE,77,9.0,13.0,68,0.00,,,0.01,Wunderground v.1.15,2013-10-08 21:49:00,
2013-10-08 17:52:00,60.7,50.1,30.25,ENE,74,10.0,14.0,68,0.00,,,0.01,Wunderground v.1.15,2013-10-08 21:52:00,
2013-10-08 17:53:00,60.6,50.0,30.25,ESE,107,10.0,14.0,68,0.00,,,0.01,Wunderground v.1.15,2013-10-08 21:53:00,
2013-10-08 17:54:00,60.6,50.4,30.25,East,84,10.0,14.0,69,0.00,,,0.01,Wunderground v.1.15,2013-10-08 21:54:00,
2013-10-08 17:56:00,60.5,49.9,30.25,ENE,70,11.0,14.0,68,0.00,,,0.01,Wunderground v.1.15,2013-10-08 21:56:00,
2013-10-08 17:58:00,60.5,49.9,30.25,East,86,10.0,14.0,68,0.00,,,0.01,Wunderground v.1.15,2013-10-08 21:58:00,
2013-10-08 17:59:00,60.5,49.9,30.25,East,92,10.0,14.0,68,0.00,,,0.01,Wunderground v.1.15,2013-10-08 21:59:00,
2013-10-08 18:01:00,60.5,49.9,30.25,NE,49,9.0,9.0,68,0.00,,,0.01,Wunderground v.1.15,2013-10-08 22:01:00,
2013-10-08 18:03:00,60.5,50.3,30.25,NNE,29,8.0,12.0,69,0.00,,,0.01,Wunderground v.1.15,2013-10-08 22:03:00,
2013-10-08 18:04:00,60.5,50.3,30.25,ENE,78,8.0,12.0,69,0.00,,,0.01,Wunderground v.1.15,2013-10-08 22:04:00,
2013-10-08 18:07:00,60.4,50.2,30.25,East,94,8.0,12.0,69,0.00,,,0.01,Wunderground v.1.15,2013-10-08 22:07:00,
2013-10-08 18:11:00,60.3,50.1,30.25,East,98,8.0,14.0,69,0.00,,,0.01,Wunderground v.1.15,2013-10-08 22:11:00,
2013-10-08 18:12:00,60.2,50.0,30.25,ESE,105,8.0,14.0,69,0.00,,,0.01,Wunderground v.1.15,2013-10-08 22:12:00,
2013-10-08 18:14:00,60.2,49.6,30.25,NE,51,8.0,14.0,68,0.00,,,0.01,Wunderground v.1.15,2013-10-08 22:14:00,
2013-10-08 18:18:00,60.2,49.6,30.25,NE,49,7.0,14.0,68,0.00,,,0.01,Wunderground v.1.15,2013-10-08 22:18:00,
2013-10-08 18:19:00,60.1,49.9,30.25,ENE,67,7.0,14.0,69,0.00,,,0.01,Wunderground v.1.15,2013-10-08 22:19:00,
2013-10-08 18:21:00,60.0,49.8,30.25,ESE,109,7.0,7.0,69,0.00,,,0.01,Wunderground v.1.15,2013-10-08 22:21:00,
2013-10-08 18:22:00,60.0,49.8,30.25,ESE,103,7.0,9.0,69,0.00,,,0.01,Wunderground v.1.15,2013-10-08 22:22:00,
2013-10-08 18:24:00,59.9,49.7,30.25,ENE,71,7.0,9.0,69,0.00,,,0.01,Wunderground v.1.15,2013-10-08 22:24:00,
2013-10-08 18:26:00,59.8,50.0,30.25,East,85,7.0,9.0,70,0.00,,,0.01,Wunderground v.1.15,2013-10-08 22:26:00,
2013-10-08 18:27:00,59.8,49.6,30.25,East,82,7.0,9.0,69,0.00,,,0.01,Wunderground v.1.15,2013-10-08 22:27:00,
2013-10-08 18:30:00,59.7,49.5,30.25,ENE,70,7.0,10.0,69,0.00,,,0.01,Wunderground v.1.15,2013-10-08 22:30:00,
2013-10-08 18:33:00,59.7,49.5,30.25,ENE,63,7.0,10.0,69,0.00,,,0.01,Wunderground v.1.15,2013-10-08 22:33:00,
2013-10-08 18:35:00,59.6,49.4,30.25,ENE,76,7.0,10.0,69,0.00,,,0.01,Wunderground v.1.15,2013-10-08 22:35:00,
2013-10-08 18:36:00,59.5,49.3,30.25,ENE,77,7.0,10.0,69,0.00,,,0.01,Wunderground v.1.15,2013-10-08 22:36:00,
2013-10-08 18:40:00,59.4,49.6,30.25,East,80,7.0,7.0,70,0.00,,,0.01,Wunderground v.1.15,2013-10-08 22:40:00,
2013-10-08 18:41:00,59.4,49.6,30.25,East,80,6.0,7.0,70,0.00,,,0.01,Wunderground v.1.15,2013-10-08 22:41:00,
2013-10-08 18:42:00,59.4,50.0,30.25,East,80,5.0,7.0,71,0.00,,,0.01,Wunderground v.1.15,2013-10-08 22:42:00,
2013-10-08 18:44:00,59.2,49.8,30.25,East,90,5.0,7.0,71,0.00,,,0.01,Wunderground v.1.15,2013-10-08 22:44:00,
2013-10-08 18:47:00,59.0,49.6,30.25,East,85,4.0,7.0,71,0.00,,,0.01,Wunderground v.1.15,2013-10-08 22:47:00,
2013-10-08 18:48:00,59.0,49.6,30.25,East,100,4.0,7.0,71,0.00,,,0.01,Wunderground v.1.15,2013-10-08 22:48:00,
2013-10-08 18:50:00,58.9,49.9,30.25,East,98,3.0,4.0,72,0.00,,,0.01,Wunderground v.1.15,2013-10-08 22:50:00,
2013-10-08 18:51:00,58.8,49.8,30.25,East,100,4.0,4.0,72,0.00,,,0.01,Wunderground v.1.15,2013-10-08 22:51:00,
2013-10-08 18:52:00,58.7,49.7,30.25,East,100,4.0,4.0,72,0.00,,,0.01,Wunderground v.1.15,2013-10-08 22:52:00,
2013-10-08 18:56:00,58.5,49.5,30.25,NE,51,3.0,4.0,72,0.00,,,0.01,Wunderground v.1.15,2013-10-08 22:56:00,
2013-10-08 18:57:00,58.4,49.4,30.25,ESE,109,3.0,4.0,72,0.00,,,0.01,Wunderground v.1.15,2013-10-08 22:57:00,
2013-10-08 18:58:00,58.3,49.3,30.25,East,95,3.0,4.0,72,0.00,,,0.01,Wunderground v.1.15,2013-10-08 22:58:00,
2013-10-08 18:59:00,58.3,49.7,30.25,East,90,3.0,5.0,73,0.00,,,0.01,Wunderground v.1.15,2013-10-08 22:59:00,
2013-10-08 19:02:00,58.1,49.5,30.25,East,84,3.0,5.0,73,0.00,,,0.01,Wunderground v.1.15,2013-10-08 23:02:00,
2013-10-08 19:04:00,58.1,49.5,30.25,ENE,69,4.0,10.0,73,0.00,,,0.01,Wunderground v.1.15,2013-10-08 23:04:00,
2013-10-08 19:06:00,58.1,49.5,30.25,East,84,5.0,10.0,73,0.00,,,0.01,Wunderground v.1.15,2013-10-08 23:06:00,
2013-10-08 19:07:00,58.1,49.5,30.25,ENE,73,5.0,10.0,73,0.00,,,0.01,Wunderground v.1.15,2013-10-08 23:07:00,
2013-10-08 19:08:00,58.1,49.5,30.25,ENE,74,6.0,10.0,73,0.00,,,0.01,Wunderground v.1.15,2013-10-08 23:08:00,
2013-10-08 19:12:00,58.0,49.4,30.25,NE,53,5.0,6.0,73,0.00,,,0.01,Wunderground v.1.15,2013-10-08 23:12:00,
2013-10-08 19:15:00,57.8,49.6,30.25,East,80,5.0,6.0,74,0.00,,,0.01,Wunderground v.1.15,2013-10-08 23:15:00,
2013-10-08 19:16:00,57.7,49.5,30.25,East,80,4.0,6.0,74,0.00,,,0.01,Wunderground v.1.15,2013-10-08 23:16:00,
2013-10-08 19:17:00,57.7,49.8,30.25,East,94,3.0,6.0,75,0.00,,,0.01,Wunderground v.1.15,2013-10-08 23:17:00,
2013-10-08 19:19:00,57.5,49.6,30.26,ESE,104,2.0,6.0,75,0.00,,,0.01,Wunderground v.1.15,2013-10-08 23:19:00,
2013-10-08 19:20:00,57.4,49.5,30.26,SE,128,2.0,2.0,75,0.00,,,0.01,Wunderground v.1.15,2013-10-08 23:20:00,
2013-10-08 19:21:00,57.3,49.4,30.26,ESE,106,2.0,2.0,75,0.00,,,0.01,Wunderground v.1.15,2013-10-08 23:21:00,
2013-10-08 19:24:00,57.1,50.0,30.26,ESE,116,2.0,2.0,77,0.00,,,0.01,Wunderground v.1.15,2013-10-08 23:24:00,
2013-10-08 19:25:00,57.0,49.9,30.26,ESE,109,2.0,2.0,77,0.00,,,0.01,Wunderground v.1.15,2013-10-08 23:25:00,
2013-10-08 19:26:00,57.0,49.9,30.26,ESE,109,2.0,2.0,77,0.00,,,0.01,Wunderground v.1.15,2013-10-08 23:26:00,
2013-10-08 19:27:00,56.9,49.8,30.26,ESE,109,2.0,2.0,77,0.00,,,0.01,Wunderground v.1.15,2013-10-08 23:27:00,
2013-10-08 19:30:00,56.6,49.8,30.26,ESE,109,1.0,1.0,78,0.00,,,0.01,Wunderground v.1.15,2013-10-08 23:30:00,
2013-10-08 19:31:00,56.6,50.2,30.26,ESE,109,1.0,2.0,79,0.00,,,0.01,Wunderground v.1.15,2013-10-08 23:31:00,
2013-10-08 19:35:00,56.2,49.8,30.26,NE,44,1.0,4.0,79,0.00,,,0.01,Wunderground v.1.15,2013-10-08 23:35:00,
2013-10-08 19:37:00,56.1,50.0,30.26,NE,44,0.0,4.0,80,0.00,,,0.01,Wunderground v.1.15,2013-10-08 23:37:00,
2013-10-08 19:38:00,56.0,49.9,30.26,NE,44,0.0,4.0,80,0.00,,,0.01,Wunderground v.1.15,2013-10-08 23:38:00,
2013-10-08 19:41:00,56.0,50.3,30.27,NE,53,0.0,2.0,81,0.00,,,0.01,Wunderground v.1.15,2013-10-08 23:41:00,
2013-10-08 19:42:00,55.9,50.2,30.27,ESE,119,0.0,3.0,81,0.00,,,0.01,Wunderground v.1.15,2013-10-08 23:42:00,
2013-10-08 19:43:00,55.8,50.1,30.27,ESE,119,0.0,3.0,81,0.00,,,0.01,Wunderground v.1.15,2013-10-08 23:43:00,
2013-10-08 19:46:00,55.7,50.3,30.27,ESE,119,0.0,3.0,82,0.00,,,0.01,Wunderground v.1.15,2013-10-08 23:46:00,
2013-10-08 19:47:00,55.6,50.2,30.27,ESE,119,0.0,3.0,82,0.00,,,0.01,Wunderground v.1.15,2013-10-08 23:47:00,
2013-10-08 19:50:00,55.5,50.1,30.27,ESE,119,0.0,2.0,82,0.00,,,0.01,Wunderground v.1.15,2013-10-08 23:50:00,
2013-10-08 19:51:00,55.5,50.1,30.27,ESE,119,0.0,2.0,82,0.00,,,0.01,Wunderground v.1.15,2013-10-08 23:51:00,
2013-10-08 19:52:00,55.5,50.4,30.27,ESE,119,0.0,2.0,83,0.00,,,0.01,Wunderground v.1.15,2013-10-08 23:52:00,
2013-10-08 19:53:00,55.5,50.4,30.27,ESE,119,0.0,2.0,83,0.00,,,0.01,Wunderground v.1.15,2013-10-08 23:53:00,
2013-10-08 19:54:00,55.5,50.7,30.27,ESE,119,0.0,2.0,84,0.00,,,0.01,Wunderground v.1.15,2013-10-08 23:54:00,
2013-10-08 19:56:00,55.5,50.7,30.27,ESE,119,0.0,2.0,84,0.00,,,0.01,Wunderground v.1.15,2013-10-08 23:56:00,
2013-10-08 19:58:00,55.5,50.1,30.27,ESE,119,0.0,2.0,82,0.00,,,0.01,Wunderground v.1.15,2013-10-08 23:58:00,
2013-10-08 20:00:00,55.6,50.5,30.27,ESE,119,0.0,2.0,83,0.00,,,0.01,Wunderground v.1.15,2013-10-09 00:00:00,
2013-10-08 20:01:00,55.6,50.5,30.27,ESE,119,0.0,2.0,83,0.00,,,0.01,Wunderground v.1.15,2013-10-09 00:01:00,
2013-10-08 20:04:00,55.6,50.2,30.27,ESE,119,0.0,2.0,82,0.00,,,0.01,Wunderground v.1.15,2013-10-09 00:04:00,
2013-10-08 20:06:00,55.6,50.2,30.27,ESE,119,0.0,2.0,82,0.00,,,0.01,Wunderground v.1.15,2013-10-09 00:06:00,
2013-10-08 20:09:00,55.7,50.6,30.28,ESE,119,0.0,2.0,83,0.00,,,0.01,Wunderground v.1.15,2013-10-09 00:09:00,
2013-10-08 20:10:00,55.7,50.3,30.28,ESE,119,0.0,2.0,82,0.00,,,0.01,Wunderground v.1.15,2013-10-09 00:10:00,
2013-10-08 20:13:00,55.7,50.3,30.28,East,84,1.0,2.0,82,0.00,,,0.01,Wunderground v.1.15,2013-10-09 00:13:00,
2013-10-08 20:14:00,55.7,50.3,30.28,East,84,1.0,2.0,82,0.00,,,0.01,Wunderground v.1.15,2013-10-09 00:14:00,
2013-10-08 20:17:00,55.7,50.6,30.28,NE,54,1.0,2.0,83,0.00,,,0.01,Wunderground v.1.15,2013-10-09 00:17:00,
2013-10-08 20:18:00,55.7,50.3,30.28,NE,48,1.0,2.0,82,0.00,,,0.01,Wunderground v.1.15,2013-10-09 00:18:00,
2013-10-08 20:20:00,55.6,50.2,30.28,NE,46,1.0,2.0,82,0.00,,,0.01,Wunderground v.1.15,2013-10-09 00:20:00,
2013-10-08 20:23:00,55.6,50.5,30.28,NE,46,1.0,2.0,83,0.00,,,0.01,Wunderground v.1.15,2013-10-09 00:23:00,
2013-10-08 20:24:00,55.7,50.9,30.28,NE,46,1.0,2.0,84,0.00,,,0.01,Wunderground v.1.15,2013-10-09 00:24:00,
2013-10-08 20:25:00,55.6,50.5,30.28,NE,46,1.0,2.0,83,0.00,,,0.01,Wunderground v.1.15,2013-10-09 00:25:00,
2013-10-08 20:27:00,55.6,50.5,30.28,ENE,60,1.0,3.0,83,0.00,,,0.01,Wunderground v.1.15,2013-10-09 00:27:00,
2013-10-08 20:30:00,55.6,50.5,30.28,NE,55,1.0,2.0,83,0.00,,,0.01,Wunderground v.1.15,2013-10-09 00:30:00,
2013-10-08 20:31:00,55.6,50.5,30.28,NE,55,1.0,2.0,83,0.00,,,0.01,Wunderground v.1.15,2013-10-09 00:31:00,
2013-10-08 20:34:00,55.5,50.4,30.28,NE,53,1.0,3.0,83,0.00,,,0.01,Wunderground v.1.15,2013-10-09 00:34:00,
2013-10-08 20:35:00,55.5,50.7,30.28,NE,46,2.0,3.0,84,0.00,,,0.01,Wunderground v.1.15,2013-10-09 00:35:00,
2013-10-08 20:37:00,55.4,50.6,30.29,NE,44,2.0,3.0,84,0.00,,,0.01,Wunderground v.1.15,2013-10-09 00:37:00,
2013-10-08 20:39:00,55.3,50.5,30.28,NNE,31,2.0,4.0,84,0.00,,,0.01,Wunderground v.1.15,2013-10-09 00:39:00,
2013-10-08 20:40:00,55.3,50.5,30.29,NNE,30,2.0,2.0,84,0.00,,,0.01,Wunderground v.1.15,2013-10-09 00:40:00,
2013-10-08 20:41:00,55.2,50.4,30.28,NE,48,2.0,4.0,84,0.00,,,0.01,Wunderground v.1.15,2013-10-09 00:41:00,
2013-10-08 20:42:00,55.2,50.4,30.29,NE,44,3.0,4.0,84,0.00,,,0.01,Wunderground v.1.15,2013-10-09 00:42:00,
2013-10-08 20:45:00,55.1,50.4,30.29,NE,46,2.0,4.0,84,0.00,,,0.01,Wunderground v.1.15,2013-10-09 00:45:00,
2013-10-08 20:48:00,55.1,50.4,30.29,ENE,60,3.0,4.0,84,0.00,,,0.01,Wunderground v.1.15,2013-10-09 00:48:00,
2013-10-08 20:49:00,55.1,50.4,30.29,ENE,60,2.0,4.0,84,0.00,,,0.01,Wunderground v.1.15,2013-10-09 00:49:00,
2013-10-08 20:50:00,55.1,50.4,30.29,ENE,60,2.0,2.0,84,0.00,,,0.01,Wunderground v.1.15,2013-10-09 00:50:00,
2013-10-08 20:51:00,55.0,50.6,30.29,ENE,60,2.0,2.0,85,0.00,,,0.01,Wunderground v.1.15,2013-10-09 00:51:00,
2013-10-08 20:52:00,55.0,50.6,30.29,ENE,60,2.0,2.0,85,0.00,,,0.01,Wunderground v.1.15,2013-10-09 00:52:00,
2013-10-08 20:54:00,54.8,50.7,30.29,ENE,60,1.0,2.0,86,0.00,,,0.01,Wunderground v.1.15,2013-10-09 00:54:00,
2013-10-08 20:56:00,54.6,50.5,30.29,ENE,60,1.0,2.0,86,0.00,,,0.01,Wunderground v.1.15,2013-10-09 00:56:00,
2013-10-08 20:57:00,54.5,50.4,30.29,ENE,60,0.0,2.0,86,0.00,,,0.01,Wunderground v.1.15,2013-10-09 00:57:00,
2013-10-08 20:58:00,54.4,50.3,30.29,ENE,60,0.0,2.0,86,0.00,,,0.01,Wunderground v.1.15,2013-10-09 00:58:00,
2013-10-08 21:00:00,54.3,50.2,30.29,ENE,60,0.0,2.0,86,0.00,,,0.01,Wunderground v.1.15,2013-10-09 01:00:00,
2013-10-08 21:02:00,54.2,50.4,30.30,ENE,60,0.0,2.0,87,0.00,,,0.01,Wunderground v.1.15,2013-10-09 01:02:00,
2013-10-08 21:04:00,54.0,50.2,30.30,ENE,60,0.0,2.0,87,0.00,,,0.01,Wunderground v.1.15,2013-10-09 01:04:00,
2013-10-08 21:06:00,53.9,50.1,30.30,ENE,60,0.0,2.0,87,0.00,,,0.01,Wunderground v.1.15,2013-10-09 01:06:00,
2013-10-08 21:08:00,53.8,50.0,30.30,ENE,60,0.0,2.0,87,0.00,,,0.01,Wunderground v.1.15,2013-10-09 01:08:00,
2013-10-08 21:10:00,53.8,49.7,30.30,ENE,78,0.0,2.0,86,0.00,,,0.01,Wunderground v.1.15,2013-10-09 01:10:00,
2013-10-08 21:11:00,53.9,50.1,30.30,ENE,78,1.0,2.0,87,0.00,,,0.01,Wunderground v.1.15,2013-10-09 01:11:00,
2013-10-08 21:13:00,53.9,50.1,30.30,ENE,78,1.0,2.0,87,0.00,,,0.01,Wunderground v.1.15,2013-10-09 01:13:00,
2013-10-08 21:16:00,53.8,50.0,30.30,NE,45,1.0,4.0,87,0.00,,,0.01,Wunderground v.1.15,2013-10-09 01:16:00,
2013-10-08 21:18:00,53.7,49.9,30.30,NE,44,1.0,4.0,87,0.00,,,0.01,Wunderground v.1.15,2013-10-09 01:18:00,
2013-10-08 21:19:00,53.8,49.7,30.30,NE,44,1.0,4.0,86,0.00,,,0.01,Wunderground v.1.15,2013-10-09 01:19:00,
2013-10-08 21:20:00,53.8,49.7,30.30,NE,46,1.0,4.0,86,0.00,,,0.01,Wunderground v.1.15,2013-10-09 01:20:00,
2013-10-08 21:23:00,54.0,49.9,30.30,NE,46,2.0,4.0,86,0.00,,,0.01,Wunderground v.1.15,2013-10-09 01:23:00,
2013-10-08 21:24:00,54.1,50.0,30.30,NE,46,2.0,4.0,86,0.00,,,0.01,Wunderground v.1.15,2013-10-09 01:24:00,
2013-10-08 21:26:00,54.1,49.7,30.30,NE,46,2.0,4.0,85,0.00,,,0.01,Wunderground v.1.15,2013-10-09 01:26:00,
2013-10-08 21:27:00,54.1,49.7,30.30,NE,46,2.0,4.0,85,0.00,,,0.01,Wunderground v.1.15,2013-10-09 01:27:00,
2013-10-08 21:30:00,54.1,49.7,30.30,NE,42,1.0,3.0,85,0.00,,,0.01,Wunderground v.1.15,2013-10-09 01:30:00,
2013-10-08 21:34:00,54.2,49.5,30.31,NE,41,1.0,4.0,84,0.00,,,0.01,Wunderground v.1.15,2013-10-09 01:34:00,
2013-10-08 21:35:00,54.2,49.5,30.31,NE,41,2.0,4.0,84,0.00,,,0.01,Wunderground v.1.15,2013-10-09 01:35:00,
2013-10-08 21:36:00,54.2,49.1,30.30,ENE,59,2.0,4.0,83,0.00,,,0.01,Wunderground v.1.15,2013-10-09 01:36:00,
2013-10-08 21:38:00,54.3,49.2,30.31,ENE,71,2.0,4.0,83,0.00,,,0.01,Wunderground v.1.15,2013-10-09 01:38:00,
2013-10-08 21:39:00,54.3,48.9,30.30,NE,45,3.0,4.0,82,0.00,,,0.01,Wunderground v.1.15,2013-10-09 01:39:00,
2013-10-08 21:40:00,54.3,48.9,30.30,NE,43,3.0,3.0,82,0.00,,,0.01,Wunderground v.1.15,2013-10-09 01:40:00,
2013-10-08 21:42:00,54.4,48.7,30.30,NE,42,3.0,4.0,81,0.00,,,0.01,Wunderground v.1.15,2013-10-09 01:42:00,
2013-10-08 21:43:00,54.4,49.0,30.31,NE,49,3.0,4.0,82,0.00,,,0.01,Wunderground v.1.15,2013-10-09 01:43:00,
2013-10-08 21:44:00,54.4,48.7,30.30,ENE,57,3.0,5.0,81,0.00,,,0.01,Wunderground v.1.15,2013-10-09 01:44:00,
2013-10-08 21:45:00,54.4,48.4,30.31,ENE,59,3.0,5.0,80,0.00,,,0.01,Wunderground v.1.15,2013-10-09 01:45:00,
2013-10-08 21:46:00,54.5,48.8,30.31,East,88,3.0,6.0,81,0.00,,,0.01,Wunderground v.1.15,2013-10-09 01:46:00,
2013-10-08 21:49:00,54.6,48.2,30.31,ENE,65,4.0,6.0,79,0.00,,,0.01,Wunderground v.1.15,2013-10-09 01:49:00,
2013-10-08 21:52:00,54.6,48.6,30.31,NE,40,3.0,6.0,80,0.00,,,0.01,Wunderground v.1.15,2013-10-09 01:52:00,
2013-10-08 21:54:00,54.6,47.9,30.31,ENE,69,4.0,6.0,78,0.00,,,0.01,Wunderground v.1.15,2013-10-09 01:54:00,
2013-10-08 21:56:00,54.7,48.0,30.31,ENE,75,4.0,6.0,78,0.00,,,0.01,Wunderground v.1.15,2013-10-09 01:56:00,
2013-10-08 21:57:00,54.8,47.7,30.31,East,80,4.0,7.0,77,0.00,,,0.01,Wunderground v.1.15,2013-10-09 01:57:00,
2013-10-08 21:59:00,54.9,48.2,30.31,ENE,65,4.0,7.0,78,0.00,,,0.01,Wunderground v.1.15,2013-10-09 01:59:00,
2013-10-08 22:01:00,55.0,47.9,30.31,NE,44,5.0,5.0,77,0.00,,,0.01,Wunderground v.1.15,2013-10-09 02:01:00,
2013-10-08 22:02:00,55.0,48.3,30.31,NNE,33,5.0,5.0,78,0.00,,,0.01,Wunderground v.1.15,2013-10-09 02:02:00,
2013-10-08 22:03:00,55.0,48.3,30.31,NNE,33,5.0,5.0,78,0.00,,,0.01,Wunderground v.1.15,2013-10-09 02:03:00,
2013-10-08 22:04:00,55.0,48.3,30.31,North,9,4.0,5.0,78,0.00,,,0.01,Wunderground v.1.15,2013-10-09 02:04:00,
2013-10-08 22:05:00,55.0,48.3,30.31,NE,51,4.0,5.0,78,0.00,,,0.01,Wunderground v.1.15,2013-10-09 02:05:00,
2013-10-08 22:07:00,55.0,48.3,30.31,NE,49,4.0,5.0,78,0.00,,,0.01,Wunderground v.1.15,2013-10-09 02:07:00,
2013-10-08 22:08:00,55.0,47.9,30.31,ENE,69,4.0,5.0,77,0.00,,,0.01,Wunderground v.1.15,2013-10-09 02:08:00,
2013-10-08 22:10:00,55.0,47.9,30.31,ENE,60,4.0,5.0,77,0.00,,,0.01,Wunderground v.1.15,2013-10-09 02:10:00,
2013-10-08 22:13:00,55.0,47.9,30.31,NE,46,4.0,5.0,77,0.00,,,0.01,Wunderground v.1.15,2013-10-09 02:13:00,
2013-10-08 22:14:00,55.0,47.9,30.31,NNE,31,4.0,6.0,77,0.00,,,0.01,Wunderground v.1.15,2013-10-09 02:14:00,
2013-10-08 22:17:00,55.0,47.9,30.31,East,84,4.0,6.0,77,0.00,,,0.01,Wunderground v.1.15,2013-10-09 02:17:00,
2013-10-08 22:18:00,55.0,47.9,30.31,East,82,4.0,6.0,77,0.00,,,0.01,Wunderground v.1.15,2013-10-09 02:18:00,
2013-10-08 22:20:00,54.9,47.8,30.31,ENE,78,4.0,6.0,77,0.00,,,0.01,Wunderground v.1.15,2013-10-09 02:20:00,
2013-10-08 22:22:00,54.9,47.8,30.31,ENE,72,3.0,6.0,77,0.00,,,0.01,Wunderground v.1.15,2013-10-09 02:22:00,
2013-10-08 22:24:00,54.8,47.7,30.31,NNE,31,3.0,6.0,77,0.00,,,0.01,Wunderground v.1.15,2013-10-09 02:24:00,
2013-10-08 22:25:00,54.8,47.7,30.31,NNE,31,3.0,6.0,77,0.00,,,0.01,Wunderground v.1.15,2013-10-09 02:25:00,
2013-10-08 22:26:00,54.8,47.7,30.31,NNE,31,3.0,6.0,77,0.00,,,0.01,Wunderground v.1.15,2013-10-09 02:26:00,
2013-10-08 22:28:00,54.8,48.1,30.31,NE,41,2.0,6.0,78,0.00,,,0.01,Wunderground v.1.15,2013-10-09 02:28:00,
2013-10-08 22:31:00,54.6,47.9,30.31,NE,41,1.0,2.0,78,0.00,,,0.01,Wunderground v.1.15,2013-10-09 02:31:00,
2013-10-08 22:32:00,54.6,48.2,30.31,NE,41,1.0,2.0,79,0.00,,,0.01,Wunderground v.1.15,2013-10-09 02:32:00,
2013-10-08 22:33:00,54.5,47.8,30.31,NE,41,1.0,2.0,78,0.00,,,0.01,Wunderground v.1.15,2013-10-09 02:33:00,
2013-10-08 22:34:00,54.5,48.1,30.31,NE,41,1.0,2.0,79,0.00,,,0.01,Wunderground v.1.15,2013-10-09 02:34:00,
2013-10-08 22:35:00,54.5,48.1,30.31,NE,41,0.0,2.0,79,0.00,,,0.01,Wunderground v.1.15,2013-10-09 02:35:00,
2013-10-08 22:36:00,54.4,48.0,30.31,NNE,12,0.0,3.0,79,0.00,,,0.01,Wunderground v.1.15,2013-10-09 02:36:00,
2013-10-08 22:37:00,54.4,47.7,30.32,NNE,22,1.0,3.0,78,0.00,,,0.01,Wunderground v.1.15,2013-10-09 02:37:00,
2013-10-08 22:41:00,54.2,47.5,30.32,NNE,22,1.0,2.0,78,0.00,,,0.01,Wunderground v.1.15,2013-10-09 02:41:00,
2013-10-08 22:42:00,54.2,47.8,30.32,NNE,22,1.0,2.0,79,0.00,,,0.01,Wunderground v.1.15,2013-10-09 02:42:00,
2013-10-08 22:43:00,54.1,47.7,30.32,NNE,22,1.0,2.0,79,0.00,,,0.01,Wunderground v.1.15,2013-10-09 02:43:00,
2013-10-08 22:44:00,54.1,47.7,30.32,NNE,22,1.0,2.0,79,0.00,,,0.01,Wunderground v.1.15,2013-10-09 02:44:00,
2013-10-08 22:49:00,53.9,47.9,30.32,NE,48,1.0,4.0,80,0.00,,,0.01,Wunderground v.1.15,2013-10-09 02:49:00,
2013-10-08 22:50:00,53.9,47.5,30.32,ENE,62,1.0,2.0,79,0.00,,,0.01,Wunderground v.1.15,2013-10-09 02:50:00,
2013-10-08 22:51:00,53.9,47.5,30.32,ENE,62,1.0,2.0,79,0.00,,,0.01,Wunderground v.1.15,2013-10-09 02:51:00,
2013-10-08 22:52:00,53.8,47.4,30.32,NE,45,1.0,5.0,79,0.00,,,0.01,Wunderground v.1.15,2013-10-09 02:52:00,
2013-10-08 22:55:00,53.6,47.6,30.32,ENE,57,2.0,5.0,80,0.00,,,0.01,Wunderground v.1.15,2013-10-09 02:55:00,
2013-10-08 22:56:00,53.6,47.6,30.32,ENE,57,1.0,5.0,80,0.00,,,0.01,Wunderground v.1.15,2013-10-09 02:56:00,
2013-10-08 23:00:00,53.2,47.5,30.32,ENE,59,1.0,4.0,81,0.00,,,0.01,Wunderground v.1.15,2013-10-09 03:00:00,
2013-10-08 23:01:00,53.2,47.2,30.31,ENE,59,1.0,4.0,80,0.00,,,0.01,Wunderground v.1.15,2013-10-09 03:01:00,
2013-10-08 23:02:00,53.2,47.5,30.31,ENE,59,1.0,4.0,81,0.00,,,0.01,Wunderground v.1.15,2013-10-09 03:02:00,
2013-10-08 23:03:00,53.1,47.7,30.31,ENE,59,1.0,4.0,82,0.00,,,0.01,Wunderground v.1.15,2013-10-09 03:03:00,
2013-10-08 23:06:00,53.1,47.4,30.31,NE,55,1.0,4.0,81,0.00,,,0.01,Wunderground v.1.15,2013-10-09 03:06:00,
2013-10-08 23:07:00,53.0,47.7,30.31,NE,55,1.0,4.0,82,0.00,,,0.01,Wunderground v.1.15,2013-10-09 03:07:00,
2013-10-08 23:08:00,53.0,47.7,30.31,NE,55,1.0,4.0,82,0.00,,,0.01,Wunderground v.1.15,2013-10-09 03:08:00,
2013-10-08 23:09:00,53.0,47.3,30.31,ENE,60,1.0,4.0,81,0.00,,,0.01,Wunderground v.1.15,2013-10-09 03:09:00,
2013-10-08 23:11:00,52.9,47.2,30.31,ENE,60,1.0,1.0,81,0.00,,,0.01,Wunderground v.1.15,2013-10-09 03:11:00,
2013-10-08 23:12:00,52.9,47.2,30.32,ENE,60,1.0,1.0,81,0.00,,,0.01,Wunderground v.1.15,2013-10-09 03:12:00,
2013-10-08 23:13:00,52.8,47.1,30.31,ENE,60,1.0,1.0,81,0.00,,,0.01,Wunderground v.1.15,2013-10-09 03:13:00,
2013-10-08 23:14:00,52.8,47.5,30.31,ENE,60,1.0,1.0,82,0.00,,,0.01,Wunderground v.1.15,2013-10-09 03:14:00,
2013-10-08 23:15:00,52.8,47.5,30.31,ENE,60,1.0,1.0,82,0.00,,,0.01,Wunderground v.1.15,2013-10-09 03:15:00,
2013-10-08 23:16:00,52.7,47.4,30.31,ENE,60,1.0,1.0,82,0.00,,,0.01,Wunderground v.1.15,2013-10-09 03:16:00,
2013-10-08 23:19:00,52.6,46.9,30.31,NE,39,1.0,5.0,81,0.00,,,0.01,Wunderground v.1.15,2013-10-09 03:19:00,
2013-10-08 23:21:00,52.6,47.3,30.31,NNW,342,1.0,5.0,82,0.00,,,0.01,Wunderground v.1.15,2013-10-09 03:21:00,
2013-10-08 23:22:00,52.6,47.3,30.31,ENE,74,2.0,8.0,82,0.00,,,0.01,Wunderground v.1.15,2013-10-09 03:22:00,
2013-10-08 23:25:00,52.9,47.2,30.32,NE,35,3.0,8.0,81,0.00,,,0.01,Wunderground v.1.15,2013-10-09 03:25:00,
2013-10-08 23:27:00,52.9,47.2,30.32,NE,35,3.0,8.0,81,0.00,,,0.01,Wunderground v.1.15,2013-10-09 03:27:00,
2013-10-08 23:28:00,52.8,47.5,30.32,NE,35,3.0,8.0,82,0.00,,,0.01,Wunderground v.1.15,2013-10-09 03:28:00,
2013-10-08 23:33:00,52.5,47.2,30.32,NE,38,2.0,9.0,82,0.00,,,0.01,Wunderground v.1.15,2013-10-09 03:33:00,
2013-10-08 23:34:00,52.5,47.5,30.32,NE,44,2.0,9.0,83,0.00,,,0.01,Wunderground v.1.15,2013-10-09 03:34:00,
2013-10-08 23:38:00,52.3,47.6,30.32,NNE,13,2.0,9.0,84,0.00,,,0.01,Wunderground v.1.15,2013-10-09 03:38:00,
2013-10-08 23:40:00,52.3,47.6,30.32,NNE,20,2.0,2.0,84,0.00,,,0.01,Wunderground v.1.15,2013-10-09 03:40:00,
2013-10-08 23:44:00,52.2,47.2,30.31,ENE,70,1.0,9.0,83,0.00,,,0.01,Wunderground v.1.15,2013-10-09 03:44:00,
2013-10-08 23:46:00,52.2,47.5,30.31,NE,41,2.0,9.0,84,0.00,,,0.01,Wunderground v.1.15,2013-10-09 03:46:00,
2013-10-08 23:47:00,52.2,47.5,30.31,NE,40,2.0,9.0,84,0.00,,,0.01,Wunderground v.1.15,2013-10-09 03:47:00,
2013-10-08 23:52:00,52.1,47.4,30.31,East,84,2.0,9.0,84,0.00,,,0.01,Wunderground v.1.15,2013-10-09 03:52:00,
2013-10-08 23:53:00,52.1,47.4,30.31,East,84,2.0,9.0,84,0.00,,,0.01,Wunderground v.1.15,2013-10-09 03:53:00,
2013-10-08 23:54:00,52.0,47.3,30.31,East,84,2.0,9.0,84,0.00,,,0.01,Wunderground v.1.15,2013-10-09 03:54:00,
2013-10-08 23:57:00,51.9,47.2,30.31,NE,39,1.0,9.0,84,0.00,,,0.01,Wunderground v.1.15,2013-10-09 03:57:00,
2013-10-08 23:59:00,51.8,47.4,30.31,NE,41,1.0,9.0,85,0.00,,,0.01,Wunderground v.1.15,2013-10-09 03:59:00,